Last Month

Pierce College

Hourly Data | America/Los_Angeles
as of 9/1/26 3:50 AM PDT
Date & Time Temp Max (°F) Temp Min (°F) RH (%) Dew Pt (°F) Latest Rain (In) Soil Temp (°F) Wind Spd (mph) Wind Dir (°) Wind Gust (mph) Leaf Wet Raw (mV) Net Radiation (W/m²) Evap Pan Max Wind (mph) Evap Pan H2O Max Temp (°F) Evap Pan Level (In)
8/31/26 - 2300 67.5 64.5 64 53.4 0.00 90.9 0.3 SSW | 209 4.0 266 -74 0.8 - 6.1
8/31/26 - 2200 68.9 67.2 59 53.2 0.00 91.0 0.5 SW | 223 4.1 264 -78 2.6 - 6.1
8/31/26 - 2100 74.8 68.5 51 52.7 0.00 90.8 0.5 SW | 222 3.7 263 -84 3.2 - 6.1
8/31/26 - 2000 79.2 74.6 39 48.8 0.00 90.9 0.9 SW | 223 4.6 262 -93 2.6 - 6.1
8/31/26 - 1900 83.4 79.1 25 41.8 0.00 90.7 2.4 S | 185 6.4 260 -17 4.6 - 6.1
8/31/26 - 1800 87.4 83.4 20 39.0 0.00 90.1 4.2 S | 184 8.7 259 135 5.4 - 6.2
8/31/26 - 1700 88.2 86.7 17 37.0 0.00 89.6 4.1 SSE | 166 11.4 258 268 6.0 - 6.2
8/31/26 - 1600 89.1 87.1 24 47.0 0.00 86.5 4.4 S | 171 9.8 259 376 6.5 - 6.2
8/31/26 - 1500 89.3 86.4 29 51.5 0.00 88.6 3.8 S | 173 10.8 259 459 6.4 - 6.2
8/31/26 - 1400 88.9 86.4 30 52.2 0.00 88.1 3.9 S | 180 9.3 260 505 5.9 - 6.2
8/31/26 - 1300 88.8 85.6 37 57.5 0.00 87.5 2.6 ESE | 114 7.5 260 502 4.9 - 6.2
8/31/26 - 1200 86.4 82.1 44 60.3 0.00 84.5 1.8 ENE | 63 6.1 260 472 4.1 - 6.2
8/31/26 - 1100 83.1 78.4 50 60.8 0.00 87.1 1.3 NE | 40 5.6 261 404 3.4 - 6.2
8/31/26 - 1000 78.5 74.4 57 60.1 0.00 91.5 1.1 NNE | 31 4.1 261 294 2.9 - 6.2
8/31/26 - 0900 74.5 72.2 59 58.4 0.00 91.9 0.7 NNE | 32 3.6 262 165 1.7 - 6.2
8/31/26 - 0800 72.5 61.4 76 57.8 0.00 89.3 0.0 NNE | 29 1.1 267 15 0.0 - 6.2
8/31/26 - 0700 62.2 60.8 84 56.6 0.00 89.5 0.0 SSE | 165 0.0 174 -34 0.0 - 6.2
8/31/26 - 0600 63.4 62.1 82 57.3 0.00 90.4 0.0 S | 177 0.5 230 -51 0.0 - 6.2
8/31/26 - 0500 65.3 63.1 79 57.6 0.00 90.6 0.0 N | 0 0.0 269 -57 0.0 - 6.2
8/31/26 - 0400 67.2 65.3 74 57.8 0.00 88.2 0.0 E | 86 0.1 268 -59 0.0 - 6.2
8/31/26 - 0300 68.3 66.7 70 57.3 0.00 88.1 0.1 E | 82 1.7 266 -59 0.0 - 6.2
8/31/26 - 0200 69.6 68.0 67 57.2 0.00 88.8 0.0 NNE | 30 1.6 266 -60 0.0 - 6.2
8/31/26 - 0100 70.7 69.4 64 57.2 0.00 90.5 0.1 E | 101 2.9 265 -60 0.3 - 6.2
8/31/26 - 0000 71.4 69.8 59 55.8 0.00 96.5 0.0 S | 188 1.1 264 -60 0.0 - 6.3
8/30/26 - 2300 74.2 71.2 55 55.5 0.00 92.5 0.2 SSW | 202 1.5 264 -63 0.0 - 6.3
8/30/26 - 2200 76.7 74.0 51 55.9 0.00 92.3 0.7 SSW | 205 3.9 263 -68 2.2 - 6.3
8/30/26 - 2100 79.2 76.5 48 56.6 0.00 92.4 1.7 SW | 214 4.3 262 -71 2.2 - 6.3
8/30/26 - 2000 85.0 78.9 45 58.3 0.00 92.0 2.0 WSW | 258 6.1 262 -76 4.1 - 6.3
8/30/26 - 1900 89.2 84.9 39 59.6 0.00 92.3 1.8 W | 265 6.5 261 -16 4.1 - 6.4
8/30/26 - 1800 91.1 88.7 35 58.7 0.00 91.3 4.0 S | 187 8.6 260 156 6.2 - 6.4
8/30/26 - 1700 95.1 90.9 30 57.3 0.00 90.6 3.6 S | 188 8.3 260 240 5.8 - 6.4
8/30/26 - 1600 95.1 92.9 27 55.2 0.00 90.1 3.4 SSW | 197 8.1 259 392 6.4 - 6.5
8/30/26 - 1500 95.0 92.4 27 54.2 0.00 89.8 3.8 S | 171 8.4 259 451 6.3 - 6.5
8/30/26 - 1400 94.0 91.3 28 55.1 0.00 89.7 3.2 SSE | 154 9.1 259 494 5.6 - 6.5
8/30/26 - 1300 93.9 91.1 32 58.6 0.00 89.1 2.6 E | 82 11.0 260 504 4.8 - 6.5
8/30/26 - 1200 92.9 86.3 39 61.0 0.00 89.0 1.2 NE | 34 6.6 260 479 4.1 - 6.5
8/30/26 - 1100 86.9 81.4 46 61.6 0.00 88.9 1.1 NE | 52 4.5 260 392 3.0 - 6.5
8/30/26 - 1000 81.5 76.8 54 61.2 0.00 89.1 0.9 ENE | 57 4.5 262 201 2.6 - 6.5
8/30/26 - 0900 77.0 73.8 60 60.8 0.00 89.7 0.5 NE | 40 3.4 263 104 1.9 - 6.5
8/30/26 - 0800 74.0 67.8 70 59.9 0.00 90.3 0.1 ESE | 102 1.7 266 -11 0.7 - 6.5
8/30/26 - 0700 68.2 67.0 76 59.5 0.00 90.5 0.1 SSE | 157 1.5 267 -42 0.0 - 6.5
8/30/26 - 0600 68.4 67.2 75 59.4 0.00 90.7 0.2 SSW | 207 1.9 267 -51 0.0 - 6.5
8/30/26 - 0500 69.9 68.3 71 59.7 0.00 91.2 0.0 SSE | 161 0.8 267 -54 0.0 - 6.5
8/30/26 - 0400 71.2 69.9 71 60.4 0.00 91.7 0.0 E | 96 0.4 266 -55 0.0 - 6.5
8/30/26 - 0300 73.1 71.2 68 61.0 0.00 91.0 0.1 E | 97 2.8 266 -58 0.0 - 6.5
8/30/26 - 0200 76.0 73.0 62 60.8 0.00 91.8 0.1 NE | 44 1.6 264 -57 1.4 - 6.5
8/30/26 - 0100 76.6 75.2 59 60.6 0.00 92.8 0.1 NE | 44 1.9 263 -47 1.1 - 6.5
8/30/26 - 0000 76.4 75.4 54 58.2 0.00 92.5 0.0 SSW | 195 1.0 263 -49 0.0 - 6.6
8/29/26 - 2300 78.7 76.0 50 57.1 0.00 93.0 0.3 SSW | 207 2.3 262 -57 0.0 - 6.6
8/29/26 - 2200 81.4 78.3 46 56.6 0.00 89.1 0.6 SW | 218 3.0 262 -64 1.4 - 6.6
8/29/26 - 2100 84.3 81.3 40 56.4 0.00 90.0 1.4 SSW | 213 4.9 261 -73 3.1 - 6.6
8/29/26 - 2000 89.3 84.0 34 55.3 0.00 95.2 0.8 W | 261 4.5 261 -77 3.9 - 6.6
8/29/26 - 1900 94.4 89.1 32 57.8 0.00 95.9 1.7 W | 281 7.8 260 -3 5.2 - 6.6
8/29/26 - 1800 97.4 94.3 28 58.1 0.00 92.3 2.3 SW | 218 8.6 260 136 6.4 - 6.7
8/29/26 - 1700 98.7 95.2 25 55.9 0.00 92.0 3.8 SSE | 167 8.7 259 263 6.6 - 6.7
8/29/26 - 1600 99.7 96.7 25 56.2 0.00 96.3 3.4 SSE | 168 8.8 259 352 6.7 - 6.7
8/29/26 - 1500 99.4 96.4 26 57.0 0.00 95.9 3.8 SSW | 203 9.9 259 397 7.0 - 6.9
8/29/26 - 1400 101.9 96.7 26 58.2 0.00 91.9 2.8 SSE | 164 9.4 259 506 6.3 - 6.9
8/29/26 - 1300 99.8 96.4 30 61.9 0.00 89.6 1.8 NE | 51 6.9 259 435 4.4 - 6.9
8/29/26 - 1200 96.7 92.6 35 62.6 0.00 89.4 2.3 NE | 54 6.7 259 462 4.9 - 6.9
8/29/26 - 1100 94.0 88.6 40 62.9 0.00 89.3 1.6 NE | 52 5.5 259 397 3.8 - 6.9
8/29/26 - 1000 89.0 84.6 44 62.5 0.00 89.9 0.8 NE | 36 4.6 260 287 2.1 - 6.9
8/29/26 - 0900 86.4 79.4 51 62.7 0.00 90.1 0.2 ENE | 69 1.9 261 165 0.9 - 6.9
8/29/26 - 0800 79.5 70.9 67 61.9 0.00 90.3 0.0 ENE | 73 1.9 264 -2 1.2 - 6.9
8/29/26 - 0700 71.2 70.5 72 61.6 0.00 90.9 0.0 N | 0 0.0 266 -40 0.0 - 6.9
8/29/26 - 0600 72.5 70.7 71 61.6 0.00 90.9 0.0 SE | 140 1.2 266 -47 0.0 - 6.9
8/29/26 - 0500 73.5 72.2 68 61.5 0.00 91.4 0.0 SSE | 148 0.6 266 -49 0.0 - 6.9
8/29/26 - 0400 74.7 73.2 64 61.2 0.00 91.5 0.0 SSW | 198 1.1 265 -50 0.0 - 6.9
8/29/26 - 0300 76.4 74.7 60 60.6 0.00 87.7 0.1 SSW | 207 1.1 264 -50 0.0 - 6.9
8/29/26 - 0200 78.0 76.3 55 59.7 0.00 94.1 0.0 SW | 216 1.3 263 -50 0.0 - 6.9
8/29/26 - 0100 78.5 76.9 48 56.6 0.00 95.6 0.1 SSW | 212 1.2 262 -51 0.0 - 6.9
8/29/26 - 0000 80.0 78.3 44 55.4 0.00 92.9 0.1 SSW | 202 1.9 262 -53 0.0 - 6.9
8/28/26 - 2300 85.8 79.6 38 54.4 0.00 92.8 0.5 SW | 219 3.3 261 -58 1.5 - 6.9
8/28/26 - 2200 87.3 85.1 34 54.3 0.00 92.6 1.2 SSW | 210 4.5 260 -63 3.0 - 6.9
8/28/26 - 2100 89.9 87.1 31 54.1 0.00 91.8 3.2 SW | 224 8.9 260 -68 5.3 - 6.9
8/28/26 - 2000 93.1 89.7 28 54.0 0.00 90.4 3.6 WSW | 238 8.0 260 -71 5.2 - 7.0
8/28/26 - 1900 98.2 93.0 24 52.8 0.00 91.4 3.8 WSW | 254 10.1 259 -1 6.1 - 7.0
8/28/26 - 1800 101.3 96.1 22 52.1 0.00 97.2 4.4 SW | 233 10.2 259 41 6.9 - 7.0
8/28/26 - 1700 104.3 100.9 19 52.8 0.00 96.5 3.5 W | 272 10.8 258 248 6.7 - 7.0
8/28/26 - 1600 105.4 102.3 19 54.0 0.00 91.2 3.6 W | 278 13.9 258 310 8.2 - 7.0
8/28/26 - 1500 107.0 103.4 19 54.5 0.00 90.3 4.5 WSW | 240 11.8 258 410 7.9 - 7.1
8/28/26 - 1400 106.2 103.5 20 54.9 0.00 89.6 3.2 SSW | 204 9.0 258 459 6.8 - 7.1
8/28/26 - 1300 105.8 101.1 23 58.3 0.00 89.5 1.9 E | 94 5.9 258 424 3.5 - 7.1
8/28/26 - 1200 104.3 98.3 24 57.5 0.00 89.3 1.3 E | 79 5.6 258 444 3.7 - 7.1
8/28/26 - 1100 98.8 92.0 32 61.3 0.00 91.2 1.0 NE | 39 4.6 258 380 3.0 - 7.1
8/28/26 - 1000 92.0 85.2 46 65.2 0.00 89.5 0.5 N | 355 3.1 260 296 3.1 - 7.1
8/28/26 - 0900 86.0 81.1 54 65.0 0.00 90.0 0.5 ENE | 71 3.2 261 137 1.5 - 7.1
8/28/26 - 0800 81.0 72.8 60 61.6 0.00 90.1 0.1 E | 96 1.8 264 -3 1.1 - 7.2
8/28/26 - 0700 73.5 71.9 62 58.9 0.00 90.0 0.2 S | 187 1.5 264 -39 0.0 - 7.2
8/28/26 - 0600 74.6 73.3 58 58.4 0.00 90.7 0.3 S | 175 2.0 264 -44 0.0 - 7.2
8/28/26 - 0500 75.5 74.3 55 57.6 0.00 90.9 0.0 SSE | 153 1.0 263 -39 0.0 - 7.2
8/28/26 - 0400 75.5 74.7 55 57.6 0.00 90.9 0.0 S | 179 0.5 263 -35 0.0 - 7.2
8/28/26 - 0300 76.4 75.0 57 59.2 0.00 91.6 0.1 SSE | 166 1.2 263 -42 0.0 - 7.2
8/28/26 - 0200 77.8 75.9 56 60.0 0.00 91.7 0.1 SSE | 167 1.1 264 -44 0.0 - 7.2
8/28/26 - 0100 78.6 77.5 56 60.9 0.00 91.9 0.4 S | 180 2.1 263 -44 0.0 - 7.2
8/28/26 - 0000 80.8 78.0 53 60.8 0.00 92.2 0.2 S | 178 1.9 262 -50 0.0 - 7.2
8/27/26 - 2300 84.1 80.7 38 54.6 0.00 92.1 0.2 S | 189 1.8 261 -51 0.0 - 7.2
8/27/26 - 2200 85.7 82.7 31 50.5 0.00 92.6 0.2 S | 180 1.9 260 -57 0.0 - 7.2
8/27/26 - 2100 92.5 85.6 25 48.5 0.00 92.5 0.3 SSE | 156 2.0 260 -62 0.4 - 7.2
8/27/26 - 2000 96.3 92.2 20 47.4 0.00 92.1 0.4 N | 358 4.2 259 -68 2.1 - 7.2
8/27/26 - 1900 100.7 96.1 18 47.6 0.00 92.3 0.4 NNW | 340 4.1 258 -32 0.0 - 7.2
8/27/26 - 1800 103.1 100.4 17 49.1 0.00 91.7 0.6 NNW | 327 6.4 258 53 0.0 - 7.2
8/27/26 - 1700 104.1 99.2 21 54.2 0.00 91.6 1.8 WNW | 285 6.9 258 190 0.0 - 7.2
8/27/26 - 1600 103.1 98.6 22 55.0 0.00 91.0 2.3 WNW | 282 9.3 259 254 0.0 - 7.3
8/27/26 - 1500 100.0 98.0 26 57.8 0.00 90.9 1.5 WNW | 289 8.6 259 144 0.0 - 7.3
8/27/26 - 1400 102.6 98.9 27 60.0 0.00 90.7 0.8 NE | 50 4.7 259 120 0.0 - 7.3
8/27/26 - 1300 103.5 96.4 24 57.3 0.00 90.3 1.2 NNW | 339 4.9 259 397 0.0 - 7.3
8/27/26 - 1200 96.5 89.4 35 60.7 0.00 90.2 3.1 SW | 229 7.7 259 427 0.0 - 7.3
8/27/26 - 1100 89.4 86.2 41 61.0 0.00 90.4 5.2 WSW | 240 12.0 260 234 0.0 - 7.3
8/27/26 - 1000 87.9 84.4 43 61.2 0.00 90.5 1.1 E | 89 4.1 261 182 0.0 - 7.3
8/27/26 - 0900 84.3 79.7 47 60.2 0.00 90.9 0.6 NNE | 31 3.6 260 134 0.0 - 7.3
8/27/26 - 0800 79.7 78.0 52 59.8 0.00 91.1 0.9 SSE | 161 4.0 262 13 0.0 - 7.3
8/27/26 - 0700 78.0 76.3 56 60.0 0.00 89.5 0.3 S | 173 3.0 263 -24 0.0 - 7.3
8/27/26 - 0600 77.7 76.6 54 59.4 0.00 87.9 0.1 SSW | 209 1.7 263 -30 0.0 - 7.3
8/27/26 - 0500 77.0 75.9 53 58.3 0.00 96.3 0.1 SSE | 151 1.7 262 -32 0.0 - 7.3
8/27/26 - 0400 77.7 76.1 51 57.3 0.00 94.1 0.1 SSW | 199 1.3 262 -42 0.0 - 7.3
8/27/26 - 0300 79.1 77.2 49 57.6 0.00 92.7 0.1 SSE | 164 1.4 262 -42 0.0 - 7.3
8/27/26 - 0200 81.0 78.6 41 54.3 0.00 92.9 0.0 N | 0 0.0 261 -42 0.0 - 7.3
8/27/26 - 0100 81.6 79.6 38 52.7 0.00 93.4 0.2 SSW | 206 1.8 261 -45 0.0 - 7.3
8/27/26 - 0000 86.2 81.0 33 51.2 0.00 93.3 0.5 SW | 216 2.7 260 -53 0.0 - 7.3
8/26/26 - 2300 87.6 85.6 28 50.0 0.00 93.3 1.5 S | 185 6.2 260 -66 0.0 - 7.3
8/26/26 - 2200 89.1 86.5 28 50.4 0.00 93.5 2.3 SSW | 210 6.2 260 -71 0.0 - 7.3
8/26/26 - 2100 92.8 89.1 26 50.6 0.00 93.6 1.4 WSW | 252 4.3 259 -78 0.0 - 7.4
8/26/26 - 2000 99.8 92.5 22 50.4 0.00 93.2 0.3 WNW | 298 4.0 259 -81 0.0 - 7.5
8/26/26 - 1900 103.5 99.7 19 51.5 0.00 93.0 0.9 WNW | 296 6.5 258 1 0.0 - 7.5
8/26/26 - 1800 106.7 102.6 18 53.2 0.00 93.2 1.3 NW | 310 6.5 258 133 0.0 - 7.5
8/26/26 - 1700 108.6 105.6 18 54.6 0.00 90.2 1.7 WNW | 297 7.3 258 255 0.0 - 7.6
8/26/26 - 1600 106.6 104.7 19 54.9 0.00 84.7 3.4 SSW | 196 7.5 258 358 0.0 - 7.6
8/26/26 - 1500 106.9 104.2 21 56.5 0.00 87.6 4.1 S | 181 8.4 258 440 0.0 - 7.7
8/26/26 - 1400 110.5 105.7 20 57.9 0.00 93.6 2.1 NE | 51 7.3 258 474 0.0 - 7.7
8/26/26 - 1300 107.4 104.8 20 56.9 0.00 93.1 1.9 NE | 51 6.5 258 481 0.0 - 7.7
8/26/26 - 1200 105.2 100.7 21 55.4 0.00 87.4 2.0 NE | 56 5.9 258 455 0.0 - 7.7
8/26/26 - 1100 101.0 94.5 26 56.9 0.00 89.4 1.5 NE | 43 4.8 258 397 0.0 - 7.7
8/26/26 - 1000 95.1 87.9 35 59.4 0.00 89.3 0.6 NNE | 22 3.2 259 304 0.0 - 7.7
8/26/26 - 0900 87.8 80.4 44 60.1 0.00 89.7 0.4 NE | 54 2.2 260 144 0.0 - 7.7
8/26/26 - 0800 80.2 68.7 62 59.1 0.00 91.8 0.0 ENE | 66 0.8 263 -17 0.0 - 7.7
8/26/26 - 0700 68.7 67.5 71 58.1 0.00 90.8 0.0 SSE | 152 0.8 266 -44 0.0 - 7.7
8/26/26 - 0600 69.3 68.2 70 58.4 0.00 94.3 0.2 S | 183 1.7 266 -52 0.0 - 7.7
8/26/26 - 0500 70.0 69.2 68 58.7 0.00 93.8 0.2 SSE | 151 1.3 266 -53 0.0 - 7.7
8/26/26 - 0400 71.3 69.6 68 59.4 0.00 91.7 0.2 SSE | 157 1.3 266 -55 0.0 - 7.7
8/26/26 - 0300 72.3 70.3 66 59.3 0.00 92.3 0.3 SSE | 167 1.5 265 -56 0.0 - 7.7
8/26/26 - 0200 74.0 72.1 62 59.2 0.00 92.4 0.2 SSW | 193 1.8 264 -58 0.0 - 7.7
8/26/26 - 0100 76.6 73.9 57 59.1 0.00 92.7 0.1 SE | 133 1.4 264 -61 0.0 - 7.7
8/26/26 - 0000 79.6 76.4 54 60.2 0.00 92.9 0.3 ESE | 103 2.4 263 -66 0.0 - 7.7
8/25/26 - 2300 81.6 79.5 53 61.7 0.00 93.1 0.2 NE | 46 3.3 263 -70 0.0 - 7.7
8/25/26 - 2200 84.9 81.5 49 62.0 0.00 93.1 0.2 E | 87 2.8 262 -72 0.0 - 7.8
8/25/26 - 2100 90.9 84.6 37 57.9 0.00 93.1 0.9 SSW | 209 4.5 262 -77 0.0 - 7.8
8/25/26 - 2000 96.3 90.8 23 50.0 0.00 92.9 3.1 WSW | 238 7.4 259 -79 0.0 - 7.8
8/25/26 - 1900 102.6 96.3 18 49.1 0.00 92.4 2.5 WSW | 251 8.5 258 -1 0.0 - 7.8
8/25/26 - 1800 105.9 101.4 16 48.9 0.00 92.3 2.3 WNW | 289 9.9 258 137 6.7 - 7.8
8/25/26 - 1700 107.3 105.1 16 49.8 0.00 91.0 2.7 W | 278 9.9 258 259 6.3 - 7.9
8/25/26 - 1600 108.0 104.7 20 56.2 0.00 90.6 1.9 NNE | 26 9.8 258 355 5.8 - 8.0
8/25/26 - 1500 105.8 104.0 23 59.4 0.00 89.8 1.7 NE | 38 5.1 259 431 3.3 - 8.0
8/25/26 - 1400 105.4 102.6 25 61.4 0.00 89.8 2.0 NE | 51 5.0 258 478 4.2 - 8.0
8/25/26 - 1300 104.2 101.2 24 59.3 0.00 89.2 2.0 NE | 49 6.6 259 478 5.0 - 8.0
8/25/26 - 1200 101.6 94.5 25 56.1 0.00 88.7 1.1 NNE | 31 3.9 258 449 3.2 - 8.0
8/25/26 - 1100 95.1 87.4 34 58.1 0.00 89.0 1.1 NNE | 18 4.6 259 400 2.5 - 8.0
8/25/26 - 1000 87.3 81.5 46 61.1 0.00 89.3 0.7 N | 357 3.9 260 307 3.4 - 8.0
8/25/26 - 0900 81.6 77.7 53 61.0 0.00 89.6 0.5 NNE | 27 3.0 261 132 1.6 - 8.0
8/25/26 - 0800 77.8 69.8 61 59.3 0.00 87.4 0.4 E | 81 3.6 262 -11 1.4 - 8.0
8/25/26 - 0700 70.2 69.1 66 57.5 0.00 90.4 0.0 SSW | 199 0.6 265 -43 0.0 - 8.0
8/25/26 - 0600 70.8 69.9 63 57.3 0.00 90.5 0.0 SE | 142 0.8 265 -38 0.0 - 8.0
8/25/26 - 0500 70.6 69.6 63 57.0 0.00 90.1 0.0 S | 170 0.7 264 -41 0.0 - 8.0
8/25/26 - 0400 72.1 70.1 62 57.4 0.00 87.3 0.1 S | 189 1.1 264 -51 0.0 - 8.0
8/25/26 - 0300 73.2 71.9 60 58.0 0.00 93.5 0.0 SSW | 198 1.2 264 -54 0.0 - 8.0
8/25/26 - 0200 75.0 73.1 57 58.0 0.00 94.7 0.0 SSE | 164 0.2 264 -56 0.0 - 8.0
8/25/26 - 0100 77.1 74.7 53 57.2 0.00 92.3 0.0 SSW | 200 1.4 263 -58 0.0 - 8.1
8/25/26 - 0000 78.5 76.9 45 55.0 0.00 92.7 0.0 SE | 141 1.4 262 -62 0.0 - 8.2
8/24/26 - 2300 82.3 78.2 35 50.2 0.00 92.8 0.2 SSE | 150 1.9 261 -67 1.0 - 8.2
8/24/26 - 2200 84.8 82.1 31 50.2 0.00 92.7 0.8 SSW | 210 3.3 260 -74 2.2 - 8.2
8/24/26 - 2100 87.8 84.5 28 49.6 0.00 92.6 1.8 SSW | 210 6.9 260 -81 3.8 - 8.2
8/24/26 - 2000 95.8 87.6 24 48.8 0.00 92.3 2.9 WSW | 243 8.0 259 -84 5.2 - 8.2
8/24/26 - 1900 100.1 95.5 20 50.1 0.00 92.3 0.6 NW | 311 4.1 258 1 4.4 - 8.2
8/24/26 - 1800 104.0 99.9 20 53.1 0.00 91.1 1.3 NW | 304 5.9 258 141 6.0 - 8.3
8/24/26 - 1700 106.8 103.7 18 53.7 0.00 90.8 1.9 WNW | 300 8.8 258 261 6.9 - 8.3
8/24/26 - 1600 107.7 105.6 14 47.1 0.00 90.4 1.9 NW | 320 7.3 258 353 5.4 - 8.3
8/24/26 - 1500 108.4 102.6 15 48.8 0.00 94.0 1.3 N | 7 6.0 258 431 4.4 - 8.4
8/24/26 - 1400 106.0 102.1 17 50.6 0.00 89.1 1.2 N | 356 6.2 258 479 4.6 - 8.4
8/24/26 - 1300 102.1 98.9 20 52.2 0.00 85.4 1.2 WNW | 297 5.3 258 487 4.1 - 8.4
8/24/26 - 1200 100.5 94.2 23 52.7 0.00 88.5 1.2 NE | 44 5.5 258 461 2.9 - 8.4
8/24/26 - 1100 94.8 89.7 26 52.4 0.00 88.8 1.2 NE | 47 4.2 258 403 3.2 - 8.4
8/24/26 - 1000 90.5 83.7 32 53.2 0.00 88.9 0.7 NE | 48 2.9 258 308 3.1 - 8.4
8/24/26 - 0900 83.8 76.3 40 53.5 0.00 89.1 0.4 NNE | 21 2.4 259 124 1.0 - 8.4
8/24/26 - 0800 76.4 67.2 54 54.2 0.00 89.8 0.1 ENE | 61 1.8 261 -21 0.0 - 8.4
8/24/26 - 0700 67.4 65.8 64 53.9 0.00 89.9 0.4 SSE | 164 2.9 265 -46 0.0 - 8.4
8/24/26 - 0600 67.2 66.1 64 54.2 0.00 90.0 0.1 SSE | 164 1.1 266 -53 0.0 - 8.5
8/24/26 - 0500 68.3 66.8 62 54.0 0.00 90.7 0.1 S | 174 1.2 265 -54 0.0 - 8.5
8/24/26 - 0400 69.8 68.1 60 54.3 0.00 91.1 0.2 SW | 216 2.0 264 -56 0.0 - 8.5
8/24/26 - 0300 70.5 69.6 58 54.7 0.00 91.4 0.3 SSE | 159 1.8 264 -58 0.0 - 8.5
8/24/26 - 0200 72.4 70.3 58 55.3 0.00 91.8 0.3 S | 177 2.0 264 -60 0.0 - 8.5
8/24/26 - 0100 74.5 72.3 55 56.0 0.00 92.2 0.1 S | 188 1.4 264 -62 0.0 - 8.5
8/24/26 - 0000 76.1 74.4 47 53.8 0.00 92.2 0.1 ESE | 102 2.7 262 -65 0.0 - 8.5
8/23/26 - 2300 79.1 75.7 41 51.7 0.00 92.3 0.2 S | 190 1.6 262 -68 0.0 - 8.5
8/23/26 - 2200 82.2 78.9 38 52.2 0.00 92.6 0.0 S | 174 1.4 261 -73 0.0 - 8.5
8/23/26 - 2100 88.0 82.1 31 50.9 0.00 92.7 0.4 SSW | 212 2.9 260 -79 0.9 - 8.5
8/23/26 - 2000 95.2 87.9 26 51.6 0.00 92.2 0.7 W | 280 4.0 259 -83 2.9 - 8.5
8/23/26 - 1900 100.1 94.9 20 50.2 0.00 92.0 0.8 NW | 308 5.5 259 -6 2.7 - 8.5
8/23/26 - 1800 101.7 98.3 18 49.0 0.00 91.5 3.6 SW | 233 9.8 258 117 5.7 - 8.6
8/23/26 - 1700 103.5 101.0 16 47.5 0.00 91.0 3.6 SSE | 157 10.1 258 270 4.9 - 8.6
8/23/26 - 1600 104.6 101.8 15 47.3 0.00 89.5 4.0 S | 170 8.2 258 376 6.0 - 8.7
8/23/26 - 1500 107.3 103.2 15 47.8 0.00 89.5 2.9 SSE | 159 9.0 258 443 6.3 - 8.7
8/23/26 - 1400 106.5 103.0 18 51.5 0.00 88.7 1.5 NE | 50 6.5 257 485 3.5 - 8.7
8/23/26 - 1300 103.5 99.9 21 53.8 0.00 88.6 1.5 NE | 49 4.7 258 494 4.6 - 8.7
8/23/26 - 1200 101.6 95.6 23 54.6 0.00 88.3 1.0 NE | 43 4.2 258 466 2.8 - 8.7
8/23/26 - 1100 96.1 90.1 27 54.1 0.00 88.3 0.8 NE | 39 3.8 258 409 3.6 - 8.7
8/23/26 - 1000 90.1 84.3 34 54.8 0.00 88.5 0.5 NNE | 14 3.3 259 314 2.2 - 8.7
8/23/26 - 0900 84.1 75.4 46 56.7 0.00 87.6 0.2 NNE | 32 2.3 260 110 1.3 - 8.7
8/23/26 - 0800 75.5 66.9 63 57.9 0.00 85.3 0.1 E | 91 1.9 262 -30 0.4 - 8.7
8/23/26 - 0700 67.1 66.1 71 56.9 0.00 92.2 0.0 S | 190 0.6 266 -46 0.0 - 8.7
8/23/26 - 0600 67.5 66.3 72 57.4 0.00 86.2 0.0 SE | 146 1.1 267 -53 0.0 - 8.7
8/23/26 - 0500 68.8 67.2 70 57.7 0.00 92.9 0.0 SSE | 150 0.5 266 -54 0.0 - 8.7
8/23/26 - 0400 70.6 68.5 67 57.7 0.00 93.1 0.0 SE | 143 0.6 266 -55 0.0 - 8.7
8/23/26 - 0300 71.5 70.2 63 57.2 0.00 91.3 0.0 SSE | 160 0.7 264 -56 0.0 - 8.7
8/23/26 - 0200 73.1 71.2 58 56.6 0.00 91.9 0.0 N | 0 0.0 264 -58 0.0 - 8.8
8/23/26 - 0100 74.4 72.8 48 52.8 0.00 91.8 0.0 N | 0 0.0 262 -60 0.0 - 8.8
8/23/26 - 0000 76.5 74.2 42 51.0 0.00 92.6 0.1 SSW | 208 1.3 262 -63 0.0 - 8.8
8/22/26 - 2300 79.7 76.3 38 49.8 0.00 92.3 0.0 SW | 222 1.4 261 -67 1.4 - 8.8
8/22/26 - 2200 83.6 79.4 32 48.9 0.00 92.9 0.4 SSW | 206 4.2 261 -72 2.5 - 8.8
8/22/26 - 2100 89.0 83.1 29 49.6 0.00 92.2 0.6 SW | 219 2.9 260 -79 1.6 - 8.9
8/22/26 - 2000 94.6 88.8 24 49.5 0.00 92.0 0.6 WNW | 284 5.5 260 -82 3.2 - 8.9
8/22/26 - 1900 100.2 94.4 18 47.1 0.00 91.7 2.5 WSW | 256 7.7 258 7 5.1 - 8.9
8/22/26 - 1800 103.9 99.5 17 48.8 0.00 90.9 1.2 NW | 312 7.7 258 146 5.3 - 8.9
8/22/26 - 1700 105.4 103.6 18 51.8 0.00 90.6 1.1 NW | 310 7.4 258 267 7.8 - 8.9
8/22/26 - 1600 106.6 104.7 20 56.7 0.00 89.6 1.1 NW | 324 6.4 258 366 5.3 - 8.9
8/22/26 - 1500 105.6 102.6 20 55.0 0.00 89.4 1.7 ESE | 113 9.8 258 444 10.3 - 8.9
8/22/26 - 1400 104.8 101.3 21 56.2 0.00 86.9 1.7 ENE | 60 6.3 258 482 4.5 - 9.0
8/22/26 - 1300 102.7 96.3 20 52.2 0.00 88.1 1.4 NNE | 18 7.3 258 489 4.0 - 9.0
8/22/26 - 1200 99.2 92.3 21 50.2 0.00 88.1 1.1 N | 354 5.2 258 464 3.0 - 9.0
8/22/26 - 1100 92.6 87.8 28 52.5 0.00 88.3 0.9 E | 84 3.6 258 406 2.4 - 9.0
8/22/26 - 1000 87.9 82.2 35 54.4 0.00 88.5 0.8 NNE | 33 3.7 259 309 2.1 - 9.0
8/22/26 - 0900 82.3 74.4 46 55.3 0.00 88.7 0.3 NNE | 19 2.2 260 98 1.5 - 9.0
8/22/26 - 0800 74.4 67.2 58 55.4 0.00 89.4 0.0 W | 270 0.9 261 -26 0.0 - 9.0
8/22/26 - 0700 67.4 66.0 64 54.0 0.00 89.5 0.2 SSE | 151 1.1 265 -44 0.0 - 9.0
8/22/26 - 0600 67.7 66.6 61 53.0 0.00 90.2 0.1 S | 172 1.3 264 -52 0.0 - 9.0
8/22/26 - 0500 68.6 67.4 59 53.3 0.00 90.6 0.1 SSE | 165 0.8 264 -53 0.0 - 9.0
8/22/26 - 0400 70.4 68.5 55 52.4 0.00 90.8 0.1 SSE | 160 1.4 264 -55 0.0 60.5 9.0
8/22/26 - 0300 72.2 70.1 53 53.3 0.00 88.9 0.1 S | 169 1.4 264 -56 0.0 48.5 9.0
8/22/26 - 0200 74.5 71.9 50 53.8 0.00 88.1 0.1 S | 191 0.9 263 -57 0.0 - 9.1
8/22/26 - 0100 75.7 73.8 52 55.9 0.00 91.6 0.1 SE | 141 1.6 263 -57 0.0 - 9.1
8/22/26 - 0000 77.8 75.7 48 55.5 0.00 91.5 0.1 SE | 136 1.4 262 -59 0.0 - 9.1
8/21/26 - 2300 79.7 77.3 45 55.0 0.00 92.1 0.1 S | 190 1.0 262 -59 0.0 - 9.1
8/21/26 - 2200 84.0 79.6 41 55.8 0.00 92.2 0.3 S | 187 2.2 262 -66 0.0 - 9.1
8/21/26 - 2100 87.9 83.7 35 54.5 0.00 91.6 1.0 SW | 216 3.7 261 -73 1.4 - 9.1
8/21/26 - 2000 95.8 87.8 25 51.0 0.00 92.1 0.5 W | 264 3.8 260 -75 2.3 - 9.1
8/21/26 - 1900 99.5 95.6 22 52.5 0.00 91.6 0.4 NW | 324 3.9 259 10 3.8 - 9.1
8/21/26 - 1800 102.6 99.1 21 54.2 0.00 90.6 0.9 NW | 313 5.7 259 149 5.2 - 9.1
8/21/26 - 1700 102.5 98.9 19 51.0 0.00 89.8 3.2 SSW | 202 7.5 258 275 5.2 - 9.1
8/21/26 - 1600 102.0 99.5 18 49.1 0.00 89.4 3.8 S | 187 10.3 258 376 6.4 - 9.1
8/21/26 - 1500 102.2 100.4 18 49.6 0.00 88.7 3.8 SSW | 192 8.3 258 452 6.3 - 9.1
8/21/26 - 1400 104.8 100.8 18 51.2 0.00 88.4 2.2 ENE | 67 7.3 258 487 5.0 - 9.1
8/21/26 - 1300 101.8 98.2 20 51.4 0.00 87.8 1.5 NE | 44 7.4 258 494 4.3 - 9.1
8/21/26 - 1200 99.6 93.6 25 54.3 0.00 87.7 1.2 NNE | 23 5.6 258 459 3.0 - 3.8
8/21/26 - 1100 94.6 88.6 31 56.4 0.00 87.8 1.2 NE | 50 5.2 259 406 2.9 - 3.8
8/21/26 - 1000 88.6 83.0 38 57.2 0.00 88.0 0.5 NE | 46 3.3 259 313 2.4 - 3.8
8/21/26 - 0900 83.8 74.8 48 56.9 0.00 88.4 0.2 SE | 146 1.8 260 90 1.8 - 3.8
8/21/26 - 0800 74.8 67.7 58 55.9 0.00 88.8 0.1 WSW | 239 1.4 262 -19 0.9 - 3.8
8/21/26 - 0700 67.8 66.1 66 55.0 0.00 89.2 0.0 N | 0 0.0 266 -38 0.0 - 3.8
8/21/26 - 0600 67.6 66.6 65 54.8 0.00 89.4 0.0 N | 0 0.0 266 -49 0.0 - 3.8
8/21/26 - 0500 68.3 67.3 63 54.7 0.00 89.6 0.0 N | 0 0.0 266 -49 0.0 - 3.8
8/21/26 - 0400 69.3 68.2 61 54.8 0.00 92.4 0.0 SSE | 150 0.5 265 -52 0.0 - 3.8
8/21/26 - 0300 69.9 69.2 59 54.6 0.00 93.5 0.0 SSW | 206 1.1 264 -49 0.0 - 3.8
8/21/26 - 0200 71.8 69.8 56 54.3 0.00 90.6 0.0 N | 0 0.0 264 -54 0.0 - 3.8
8/21/26 - 0100 72.9 71.3 54 54.7 0.00 91.2 0.0 SE | 139 0.4 263 -57 0.0 - 3.8
8/21/26 - 0000 74.5 72.8 51 54.7 0.00 91.1 0.0 SW | 225 1.1 263 -57 0.0 - 3.8
8/20/26 - 2300 76.8 74.4 50 55.7 0.00 91.1 0.1 SSW | 207 1.7 263 -63 0.0 - 3.8
8/20/26 - 2200 80.1 76.8 46 56.1 0.00 91.6 0.0 ESE | 104 2.1 262 -63 0.0 - 3.8
8/20/26 - 2100 86.9 80.0 39 55.4 0.00 90.6 0.1 ESE | 112 3.2 262 -73 1.3 - 3.8
8/20/26 - 2000 90.9 86.8 29 52.8 0.00 91.1 1.0 WSW | 253 4.8 260 -73 4.1 - 3.8
8/20/26 - 1900 95.2 90.7 26 52.6 0.00 90.8 2.5 SSW | 192 7.2 260 18 5.5 - 3.8
8/20/26 - 1800 99.4 94.9 19 48.6 0.00 90.1 3.5 S | 178 7.3 259 155 6.3 - 3.8
8/20/26 - 1700 104.3 99.2 17 48.1 0.00 89.6 2.4 S | 178 7.6 258 273 5.3 - 3.8
8/20/26 - 1600 104.0 101.6 16 48.5 0.00 88.5 1.8 NE | 34 7.4 258 343 3.3 - 3.8
8/20/26 - 1500 104.0 101.0 21 55.2 0.00 88.0 1.7 NE | 38 5.5 258 386 3.2 - 3.8
8/20/26 - 1400 101.3 96.4 25 56.9 0.00 87.7 1.6 NE | 44 7.9 259 455 4.4 - 3.8
8/20/26 - 1300 98.2 94.7 30 59.8 0.00 87.3 1.8 NE | 34 6.5 259 487 4.5 - 3.8
8/20/26 - 1200 95.1 90.7 33 59.4 0.00 87.3 1.6 NE | 36 5.3 260 463 3.3 - 3.8
8/20/26 - 1100 91.0 86.2 38 59.8 0.00 85.3 1.2 NE | 41 4.3 260 412 3.4 - 3.8
8/20/26 - 1000 86.3 80.2 44 58.6 0.00 83.4 0.9 NNE | 33 3.3 260 317 2.7 - 3.8
8/20/26 - 0900 80.4 71.5 58 59.1 0.00 89.0 0.5 NE | 42 2.6 261 89 1.6 - 3.8
8/20/26 - 0800 71.7 64.3 72 58.0 0.00 88.5 0.1 E | 82 1.7 263 -29 0.0 - 3.8
8/20/26 - 0700 64.4 63.2 79 57.0 0.00 89.0 0.4 SSE | 165 1.9 271 -48 0.0 - 3.8
8/20/26 - 0600 64.4 63.0 80 57.4 0.00 89.3 0.2 SSW | 202 2.5 272 -54 0.0 - 3.8
8/20/26 - 0500 65.3 64.0 78 57.7 0.00 89.5 0.3 SSW | 195 1.4 271 -56 0.0 - 3.8
8/20/26 - 0400 66.4 65.0 76 58.1 0.00 89.8 0.1 S | 172 1.0 271 -58 0.0 - 3.8
8/20/26 - 0300 68.8 66.2 73 58.3 0.00 89.1 0.2 S | 175 1.4 269 -61 0.0 - 3.8
8/20/26 - 0200 70.3 68.7 67 58.3 0.00 86.9 0.0 E | 80 1.8 266 -65 0.0 - 3.8
8/20/26 - 0100 71.8 69.9 64 58.4 0.00 95.0 0.0 E | 91 1.8 266 -67 0.0 - 3.8
8/20/26 - 0000 72.5 71.0 52 52.9 0.00 92.4 0.1 SSE | 159 0.8 264 -67 0.0 - 3.8
8/19/26 - 2300 76.2 72.2 46 51.8 0.00 91.5 0.3 SSW | 204 2.2 262 -71 0.4 - 3.8
8/19/26 - 2200 80.8 76.2 38 51.5 0.00 91.5 1.1 SSW | 212 6.3 262 -79 3.8 - 3.8
8/19/26 - 2100 85.1 80.7 36 53.0 0.00 91.2 3.4 SSW | 210 8.2 261 -86 5.5 - 3.8
8/19/26 - 2000 95.0 85.0 28 52.2 0.00 91.0 2.1 WSW | 254 6.6 260 -86 4.1 - 3.8
8/19/26 - 1900 98.7 94.5 22 51.8 0.00 86.9 0.7 NW | 308 6.6 259 15 4.6 - 3.8
8/19/26 - 1800 101.2 98.1 22 52.9 0.00 90.1 0.8 NW | 321 7.3 259 157 5.2 - 3.8
8/19/26 - 1700 102.5 100.2 23 56.6 0.00 90.2 2.1 WNW | 288 8.5 259 281 0.0 - 3.8
8/19/26 - 1600 104.8 101.0 21 55.0 0.00 88.7 2.5 SSW | 211 14.6 259 378 6.1 - 3.8
8/19/26 - 1500 105.5 102.3 20 54.4 0.00 88.2 1.6 NNE | 27 5.4 258 447 4.2 - 3.8
8/19/26 - 1400 103.2 98.6 21 54.3 0.00 87.5 1.7 NE | 52 6.6 259 497 3.4 - 3.8
8/19/26 - 1300 100.4 95.6 22 53.7 0.00 85.1 1.2 NNE | 24 4.4 258 500 3.5 - 3.8
8/19/26 - 1200 96.1 90.1 27 54.3 0.00 82.5 1.2 NNE | 31 4.8 259 477 3.5 - 3.8
8/19/26 - 1100 90.1 85.1 36 56.8 0.00 86.5 1.1 NE | 45 4.0 259 418 3.1 - 3.8
8/19/26 - 1000 85.3 79.5 43 57.3 0.00 91.7 0.7 NE | 39 4.2 260 321 0.0 - 3.8
8/19/26 - 0900 80.2 71.8 57 58.1 0.00 89.6 0.2 N | 10 2.2 260 97 0.0 - 3.8
8/19/26 - 0800 72.0 64.6 71 58.4 0.00 87.8 0.1 NNE | 23 2.2 263 -19 0.0 - 3.8
8/19/26 - 0700 64.7 63.4 79 57.3 0.00 88.3 0.0 SE | 140 0.7 269 -43 0.0 - 3.8
8/19/26 - 0600 65.0 63.7 78 57.4 0.00 89.1 0.2 SSE | 152 1.8 271 -53 0.0 - 3.8
8/19/26 - 0500 66.3 64.8 76 57.7 0.00 89.2 0.1 S | 171 1.1 270 -55 0.0 - 3.8
8/19/26 - 0400 67.5 66.1 73 58.1 0.00 86.0 0.0 SSW | 192 0.7 268 -56 0.0 - 3.8
8/19/26 - 0300 68.3 67.1 63 54.7 0.00 89.7 0.1 SSW | 213 1.1 266 -56 0.0 - 3.8
8/19/26 - 0200 69.4 67.7 56 52.1 0.00 90.1 0.0 S | 184 1.0 264 -57 0.0 - 3.8
8/19/26 - 0100 71.4 69.4 52 51.7 0.00 90.7 0.1 S | 190 1.0 263 -59 0.0 - 3.8
8/19/26 - 0000 73.1 71.3 47 51.0 0.00 90.7 0.0 S | 184 1.1 263 -63 0.0 - 3.8
8/18/26 - 2300 78.0 73.0 42 50.9 0.00 90.9 0.1 SW | 215 3.7 262 -68 0.0 - 3.8
8/18/26 - 2200 80.5 77.8 35 48.9 0.00 91.0 1.0 SSW | 207 4.3 261 -74 0.0 - 3.8
8/18/26 - 2100 84.8 80.3 30 48.3 0.00 92.6 3.1 SW | 231 7.5 260 -80 0.0 - 3.8
8/18/26 - 2000 92.3 84.3 21 43.1 0.00 90.3 0.8 WNW | 282 4.6 260 -84 0.2 - 3.8
8/18/26 - 1900 96.9 92.2 16 41.1 0.00 88.8 0.7 NW | 312 5.4 258 13 4.2 - 3.8
8/18/26 - 1800 99.9 96.5 18 48.0 0.00 85.7 1.0 NW | 315 8.2 258 166 6.2 - 3.8
8/18/26 - 1700 102.4 98.6 20 52.4 0.00 91.3 2.6 WNW | 289 11.8 258 268 6.4 - 3.8
8/18/26 - 1600 103.5 100.1 19 51.5 0.00 93.3 1.9 NNE | 24 10.4 258 383 8.1 - 3.8
8/18/26 - 1500 102.1 97.5 21 53.2 0.00 88.6 1.4 NE | 54 5.0 258 413 5.9 - 3.8
8/18/26 - 1400 98.5 94.5 24 54.7 0.00 86.0 2.0 ENE | 77 6.0 259 507 4.2 - 3.8
8/18/26 - 1300 96.7 93.1 24 53.3 0.00 86.6 1.6 NE | 43 6.3 258 504 1.1 - 3.8
8/18/26 - 1200 94.3 88.8 27 52.9 0.00 86.6 0.9 N | 11 4.5 258 478 2.1 - 3.8
8/18/26 - 1100 89.0 82.6 33 53.2 0.00 86.5 0.9 NNE | 12 3.8 259 407 2.9 - 3.8
8/18/26 - 1000 84.2 77.8 39 54.3 0.00 89.7 0.8 NNE | 22 3.7 260 297 2.7 - 3.8
8/18/26 - 0900 77.7 71.6 53 55.5 0.00 89.9 0.4 NNE | 32 2.6 260 96 1.9 - 3.8
8/18/26 - 0800 71.8 64.6 64 54.9 0.00 87.7 0.0 ESE | 119 1.0 263 -17 0.0 - 3.8
8/18/26 - 0700 64.7 63.1 69 53.4 0.00 88.1 0.0 SSE | 159 0.5 267 -42 0.0 - 3.8
8/18/26 - 0600 64.5 63.3 68 53.0 0.00 88.2 0.1 S | 172 1.0 266 -53 0.0 - 3.8
8/18/26 - 0500 65.9 64.2 63 52.0 0.00 88.7 0.1 S | 177 1.2 266 -52 0.0 - 3.8
8/18/26 - 0400 66.7 65.6 56 50.0 0.00 89.1 0.0 S | 171 0.7 264 -49 0.0 - 3.8
8/18/26 - 0300 66.8 65.7 55 49.6 0.00 88.4 0.0 SSE | 163 0.9 264 -51 0.0 - 3.8
8/18/26 - 0200 67.8 66.7 52 48.9 0.00 89.7 0.0 SSE | 155 0.8 263 -59 0.0 - 3.8
8/18/26 - 0100 69.6 67.7 47 47.4 0.00 90.1 0.1 S | 180 1.5 263 -62 0.0 - 3.8
8/18/26 - 0000 72.8 69.4 41 46.2 0.00 90.3 0.2 SSW | 201 1.7 262 -65 0.0 - 3.8
8/17/26 - 2300 76.9 72.8 36 46.3 0.00 87.7 0.5 SSW | 195 6.0 261 -72 0.0 - 3.8
8/17/26 - 2200 78.1 76.2 35 47.2 0.00 88.7 3.2 SSW | 211 7.1 261 -75 0.0 - 3.8
8/17/26 - 2100 80.5 77.8 30 45.3 0.00 93.8 2.7 WSW | 238 8.1 260 -82 0.0 - 3.8
8/17/26 - 2000 88.2 80.3 26 45.2 0.00 93.9 3.7 WSW | 242 7.6 260 -81 0.0 - 3.8
8/17/26 - 1900 93.7 88.1 20 44.1 0.00 89.7 1.0 NW | 311 5.9 259 21 0.0 - 3.8
8/17/26 - 1800 98.8 93.7 17 44.6 0.00 89.2 0.9 NW | 322 5.0 258 160 0.0 - 3.8
8/17/26 - 1700 101.1 98.5 18 48.2 0.00 88.4 1.1 NW | 317 6.8 258 279 0.0 - 3.8
8/17/26 - 1600 100.8 97.5 21 52.0 0.00 87.9 1.3 N | 10 5.8 259 376 2.8 - 3.8
8/17/26 - 1500 101.6 98.9 21 53.9 0.00 87.0 1.2 NNW | 329 7.6 259 454 0.0 - 3.8
8/17/26 - 1400 99.6 96.2 22 52.0 0.00 86.9 1.6 NE | 47 6.1 259 500 3.0 - 3.8
8/17/26 - 1300 97.9 93.7 19 47.1 0.00 86.5 1.1 NNE | 13 5.0 258 503 0.0 - 3.8
8/17/26 - 1200 93.9 88.2 25 49.9 0.00 85.8 1.1 NNE | 17 4.9 258 480 0.0 - 3.8
8/17/26 - 1100 88.3 83.0 38 57.0 0.00 86.0 1.2 NE | 34 5.0 260 423 0.0 - 3.8
8/17/26 - 1000 83.0 76.2 48 58.2 0.00 86.2 1.1 NE | 46 4.4 261 328 2.1 - 3.8
8/17/26 - 0900 76.6 68.4 64 59.0 0.00 86.5 0.7 NW | 322 3.8 262 116 1.5 - 3.8
8/17/26 - 0800 68.4 61.9 82 59.2 0.00 87.4 0.2 W | 264 3.0 265 13 0.0 - 3.8
8/17/26 - 0700 62.0 60.7 88 57.7 0.00 91.5 0.1 SSW | 193 1.2 262 -16 0.0 - 3.8
8/17/26 - 0600 61.8 60.8 87 57.4 0.00 88.3 0.1 SSW | 204 1.2 190 -30 0.0 - 3.8
8/17/26 - 0500 62.9 61.3 84 57.3 0.00 88.4 0.1 SSW | 192 1.4 182 -43 0.0 - 3.8
8/17/26 - 0400 63.7 62.4 79 56.3 0.00 88.8 0.2 S | 172 1.4 265 -56 0.0 - 3.8
8/17/26 - 0300 64.7 63.3 75 55.9 0.00 88.7 0.2 S | 185 1.6 269 -60 0.0 - 3.8
8/17/26 - 0200 65.6 63.7 61 50.7 0.00 89.4 0.4 SSW | 203 2.7 266 -65 0.0 - 3.8
8/17/26 - 0100 68.6 65.3 53 49.4 0.00 89.8 0.2 SSE | 152 1.3 264 -68 0.0 - 3.8
8/17/26 - 0000 70.2 68.3 49 49.6 0.00 90.3 0.2 SSW | 192 2.0 263 -66 0.0 - 3.8
8/16/26 - 2300 73.6 69.2 48 50.6 0.00 90.2 0.4 S | 191 3.6 263 -68 0.0 - 3.8
8/16/26 - 2200 77.0 73.3 44 52.2 0.00 90.2 0.9 SW | 218 3.9 262 -75 0.0 - 3.8
8/16/26 - 2100 80.8 76.8 40 52.1 0.00 90.4 1.4 SW | 225 5.5 262 -79 0.0 - 3.8
8/16/26 - 2000 86.8 80.7 31 49.9 0.00 90.0 3.2 WSW | 239 7.1 261 -79 0.0 - 3.8
8/16/26 - 1900 91.7 86.7 27 51.4 0.00 89.4 2.1 W | 264 7.3 260 -8 0.0 - 3.8
8/16/26 - 1800 95.8 91.5 26 53.3 0.00 86.7 1.0 NW | 317 6.0 260 162 0.0 - 3.8
8/16/26 - 1700 96.5 93.9 26 55.7 0.00 88.3 1.5 WNW | 296 7.7 260 292 0.0 - 3.8
8/16/26 - 1600 96.2 93.1 28 56.6 0.00 87.2 3.9 WSW | 253 11.3 260 396 0.0 - 3.8
8/16/26 - 1500 99.9 95.4 20 49.0 0.00 87.3 1.7 ENE | 58 7.4 259 461 0.0 - 3.8
8/16/26 - 1400 98.7 91.1 20 47.7 0.00 83.5 1.2 NNE | 23 4.7 259 506 0.0 - 3.8
8/16/26 - 1300 95.1 88.6 24 49.7 0.00 86.8 0.9 NNE | 26 5.2 259 514 0.0 - 3.8
8/16/26 - 1200 89.3 84.5 35 55.2 0.00 86.0 1.0 NNE | 21 4.6 260 490 0.0 - 3.8
8/16/26 - 1100 84.6 78.7 44 57.6 0.00 86.1 0.8 NNE | 25 4.7 261 431 0.0 - 3.8
8/16/26 - 1000 78.7 72.6 55 58.1 0.00 86.3 0.8 NE | 39 3.3 262 331 0.0 - 3.8
8/16/26 - 0900 73.6 66.5 71 58.9 0.00 86.6 0.4 NE | 40 2.3 263 149 0.0 - 3.8
8/16/26 - 0800 66.5 61.2 87 59.4 0.00 86.9 0.1 ESE | 120 1.2 268 21 0.0 - 3.8
8/16/26 - 0700 61.2 60.3 90 57.6 0.00 87.2 0.0 S | 181 0.7 280 -12 0.0 - 3.8
8/16/26 - 0600 61.7 60.5 89 57.8 0.00 87.7 0.0 S | 180 1.1 260 -23 0.0 - 3.8
8/16/26 - 0500 62.1 61.2 87 57.7 0.00 87.7 0.0 SSW | 208 1.0 211 -28 0.0 - 3.8
8/16/26 - 0400 62.5 61.5 86 57.7 0.00 88.7 0.0 SSW | 206 1.1 229 -32 0.0 - 3.8
8/16/26 - 0300 63.1 62.2 85 58.0 0.00 88.8 0.1 S | 191 1.1 234 -40 0.0 - 3.8
8/16/26 - 0200 63.7 62.8 84 58.4 0.00 89.3 0.2 SSW | 193 1.2 260 -51 0.0 - 3.8
8/16/26 - 0100 65.1 63.6 82 58.7 0.00 94.0 0.3 SSW | 202 1.8 271 -61 0.0 73.3 3.8
8/16/26 - 0000 67.5 65.0 78 59.0 0.00 90.9 0.2 SSW | 209 1.7 271 -65 0.0 11.4 3.8
8/15/26 - 2300 69.6 67.3 72 59.2 0.00 90.1 0.0 NE | 56 2.0 268 -69 0.0 - 3.8
8/15/26 - 2200 72.6 69.3 67 59.4 0.00 89.7 0.1 E | 99 1.4 266 -72 0.0 - 3.8
8/15/26 - 2100 77.2 72.4 59 59.2 0.00 90.1 0.1 ENE | 65 2.3 265 -78 0.0 - 3.8
8/15/26 - 2000 83.8 77.0 49 58.8 0.00 89.7 0.5 NNE | 19 3.7 264 -74 0.0 - 3.8
8/15/26 - 1900 88.8 83.8 37 57.6 0.00 89.5 0.8 N | 356 6.0 262 35 0.0 - 3.8
8/15/26 - 1800 89.0 85.8 38 58.6 0.00 88.8 3.5 SSW | 202 9.1 262 178 0.0 - 3.8
8/15/26 - 1700 90.7 88.3 33 56.7 0.00 88.6 3.5 S | 175 8.7 261 299 0.0 - 3.8
8/15/26 - 1600 94.5 89.4 32 58.3 0.00 87.5 2.4 ENE | 68 8.3 261 392 0.0 - 3.8
8/15/26 - 1500 94.5 89.8 31 57.8 0.00 87.0 1.7 NE | 51 5.5 261 468 0.0 - 3.8
8/15/26 - 1400 92.1 87.7 35 58.3 0.00 86.4 1.4 ENE | 68 5.9 261 518 0.0 - 3.8
8/15/26 - 1300 88.8 81.4 42 59.0 0.00 86.2 1.4 WNW | 291 6.4 261 526 0.0 - 3.8
8/15/26 - 1200 83.1 77.3 50 59.5 0.00 86.1 1.3 NE | 51 4.7 262 497 0.0 - 3.8
8/15/26 - 1100 77.3 72.0 60 59.7 0.00 86.3 1.2 ESE | 107 5.0 262 446 0.0 - 3.8
8/15/26 - 1000 72.0 67.3 71 59.2 0.00 86.3 0.8 NNW | 334 3.5 264 164 0.0 - 3.8
8/15/26 - 0900 68.0 65.8 75 59.1 0.00 86.9 0.4 NE | 36 3.0 267 65 0.0 - 3.8
8/15/26 - 0800 66.1 64.8 80 59.0 0.00 87.1 0.5 SE | 144 4.4 269 18 0.0 - 3.8
8/15/26 - 0700 65.0 62.8 84 58.8 0.00 87.6 0.1 WSW | 253 2.5 270 -5 0.0 - 3.8
8/15/26 - 0600 63.1 60.8 87 57.8 0.00 87.8 0.8 SSW | 192 2.4 252 -13 0.0 - 3.8
8/15/26 - 0500 60.8 59.8 88 56.8 0.00 88.3 0.4 S | 170 2.6 193 -25 0.0 - 3.8
8/15/26 - 0400 61.4 60.5 87 57.1 0.00 88.6 0.1 S | 174 0.9 191 -33 0.0 - 3.8
8/15/26 - 0300 62.1 61.1 84 56.8 0.00 89.1 0.0 S | 178 1.0 234 -44 0.0 - 3.8
8/15/26 - 0200 62.6 61.8 83 57.0 0.00 89.4 0.1 SSE | 158 0.9 264 -53 0.0 - 3.8
8/15/26 - 0100 64.0 62.3 81 57.3 0.00 90.0 0.3 SSW | 204 1.2 271 -60 0.0 - 3.8
8/15/26 - 0000 66.1 63.9 76 57.6 0.00 90.1 0.4 SW | 231 3.9 270 -66 0.0 - 3.8
8/14/26 - 2300 68.0 65.8 72 57.7 0.00 90.1 1.0 SSW | 205 4.8 267 -69 0.0 - 3.8
8/14/26 - 2200 70.5 67.9 67 57.7 0.00 90.1 2.4 WSW | 242 6.5 266 -72 0.0 - 3.8
8/14/26 - 2100 74.2 70.4 61 57.9 0.00 90.0 2.8 SW | 224 6.5 265 -77 0.0 - 3.8
8/14/26 - 2000 79.6 74.1 52 57.6 0.00 90.0 1.8 SSW | 196 4.3 264 -68 0.0 - 3.8
8/14/26 - 1900 83.8 79.4 43 56.5 0.00 91.6 2.4 SSE | 162 5.8 262 43 0.0 - 3.8
8/14/26 - 1800 86.4 83.3 37 55.9 0.00 93.0 2.6 E | 101 7.0 262 183 0.0 - 3.8
8/14/26 - 1700 87.1 84.8 35 55.4 0.00 89.2 2.4 ESE | 118 8.6 262 305 0.0 - 3.8
8/14/26 - 1600 86.1 83.9 40 58.0 0.00 88.2 3.4 SSE | 168 9.4 262 410 0.0 - 3.8
8/14/26 - 1500 87.4 83.9 40 58.5 0.00 87.7 3.3 SSE | 163 11.3 262 487 3.4 - 3.8
8/14/26 - 1400 84.5 82.8 45 59.8 0.00 87.8 3.9 S | 179 9.1 262 538 0.7 - 3.8
8/14/26 - 1300 85.8 82.0 46 60.6 0.00 87.0 2.1 E | 86 7.2 262 501 0.0 - 3.8
8/14/26 - 1200 83.6 76.6 52 60.8 0.00 87.1 1.7 E | 95 6.0 262 516 0.0 - 3.8
8/14/26 - 1100 78.9 71.6 61 60.5 0.00 87.2 1.4 ESE | 116 5.7 262 324 0.0 - 3.8
8/14/26 - 1000 71.8 69.3 69 60.0 0.00 87.1 0.8 E | 87 5.0 266 108 0.0 - 3.8
8/14/26 - 0900 69.4 67.9 74 59.8 0.00 87.9 1.1 SE | 129 4.5 266 50 0.0 - 3.8
8/14/26 - 0800 68.5 67.1 75 59.6 0.00 87.8 0.7 E | 84 3.8 266 15 0.0 - 3.8
8/14/26 - 0700 67.6 67.0 75 59.3 0.00 88.4 1.3 ESE | 107 4.3 267 -12 0.0 - 3.8
8/14/26 - 0600 67.8 67.2 72 58.2 0.00 88.2 0.3 ESE | 122 3.1 267 -18 0.0 - 3.8
8/14/26 - 0500 67.5 66.7 72 57.7 0.00 89.1 0.5 SW | 216 2.1 266 -18 0.0 - 3.8
8/14/26 - 0400 66.9 66.1 73 57.6 0.00 89.0 1.1 WSW | 237 2.8 266 -18 0.0 - 3.8
8/14/26 - 0300 66.8 66.1 74 57.8 0.00 89.1 1.5 WSW | 253 4.2 267 -19 0.0 - 3.8
8/14/26 - 0200 66.6 66.0 75 58.0 0.00 90.0 1.5 SSW | 202 4.3 267 -17 0.0 - 3.8
8/14/26 - 0100 66.3 64.4 77 57.8 0.00 90.3 0.7 SSW | 199 4.2 267 -41 0.0 - 3.8
8/14/26 - 0000 66.5 65.2 76 57.8 0.00 90.3 0.2 SSW | 195 1.8 268 -60 0.0 - 3.8
8/13/26 - 2300 68.5 66.3 71 57.8 0.00 86.8 0.2 S | 170 2.1 266 -64 0.0 - 3.8
8/13/26 - 2200 70.8 68.2 67 57.8 0.00 91.4 0.8 S | 182 2.5 266 -65 0.0 - 3.8
8/13/26 - 2100 73.0 70.7 61 57.5 0.00 94.1 1.2 S | 173 3.1 264 -66 0.0 - 3.8
8/13/26 - 2000 78.9 72.6 54 57.4 0.00 90.6 1.6 SSE | 168 4.4 264 -49 0.0 - 3.8
8/13/26 - 1900 79.5 78.0 47 56.9 0.00 91.3 2.3 SSE | 153 6.7 262 77 0.0 - 3.8
8/13/26 - 1800 81.3 79.1 44 56.3 0.00 89.5 3.7 SE | 133 9.1 262 186 0.0 - 3.8
8/13/26 - 1700 83.0 80.4 40 55.2 0.00 89.4 3.8 ESE | 122 10.0 262 301 0.0 - 3.8
8/13/26 - 1600 84.8 81.6 37 53.6 0.00 88.5 4.0 SE | 144 10.2 261 369 0.0 - 3.8
8/13/26 - 1500 84.6 80.4 41 56.4 0.00 88.4 3.1 SE | 142 9.1 262 461 0.0 - 3.8
8/13/26 - 1400 82.6 80.1 42 56.4 0.00 88.0 3.5 SSE | 160 8.9 261 505 0.1 - 3.8
8/13/26 - 1300 80.7 78.2 47 57.6 0.00 87.7 3.0 S | 179 7.9 261 539 0.0 - 3.8
8/13/26 - 1200 82.1 78.6 48 59.0 0.00 88.1 2.0 ENE | 58 7.2 262 511 0.0 - 3.8
8/13/26 - 1100 78.6 72.1 59 59.2 0.00 88.2 2.6 E | 92 7.6 262 355 0.0 - 3.8
8/13/26 - 1000 73.5 69.2 66 59.3 0.00 88.4 2.0 E | 86 6.9 264 171 0.0 - 3.8
8/13/26 - 0900 69.9 69.0 69 59.0 0.00 88.3 2.5 ESE | 118 6.5 266 64 0.0 - 3.8
8/13/26 - 0800 69.6 68.0 71 58.8 0.00 88.7 0.9 ESE | 123 4.5 266 16 0.0 - 3.8
8/13/26 - 0700 68.4 67.7 73 59.0 0.00 89.0 0.8 ESE | 119 4.0 266 -14 0.0 - 3.8
8/13/26 - 0600 67.9 67.3 74 59.0 0.00 93.9 0.9 ESE | 102 3.0 267 -23 0.0 - 3.8
8/13/26 - 0500 67.7 67.2 75 59.1 0.00 90.1 1.6 ESE | 106 5.6 267 -20 0.0 - 3.8
8/13/26 - 0400 67.4 66.9 75 59.1 0.00 90.2 2.0 ESE | 106 5.4 267 -17 0.0 - 3.8
8/13/26 - 0300 67.4 66.8 75 59.1 0.00 90.5 1.5 E | 90 6.1 266 -18 0.0 - 3.8
8/13/26 - 0200 67.4 66.1 76 59.2 0.00 90.6 0.9 E | 87 4.3 266 -22 0.0 - 3.8
8/13/26 - 0100 66.5 65.4 76 58.4 0.00 90.9 1.0 ESE | 113 3.6 268 -57 0.0 - 3.8
8/13/26 - 0000 67.0 65.4 75 58.1 0.00 91.3 0.4 SSE | 166 2.5 267 -62 0.0 - 3.8
8/12/26 - 2300 69.0 66.8 69 57.3 0.00 89.5 1.2 S | 188 3.5 266 -65 0.0 - 3.8
8/12/26 - 2200 73.0 68.8 62 57.1 0.00 91.8 0.3 SSW | 201 2.0 264 -69 0.0 - 3.8
8/12/26 - 2100 75.3 72.8 50 53.7 0.00 91.6 0.7 SE | 137 4.2 264 -75 0.0 - 3.8
8/12/26 - 2000 79.4 75.1 39 50.2 0.00 91.8 2.2 S | 178 6.7 262 -52 0.0 - 3.8
8/12/26 - 1900 83.0 78.9 38 52.7 0.00 91.2 3.9 S | 181 10.3 261 44 0.0 - 3.8
8/12/26 - 1800 87.8 82.7 36 55.5 0.00 90.7 3.9 S | 183 8.3 261 154 0.0 - 3.8
8/12/26 - 1700 89.0 87.3 33 55.9 0.00 90.2 4.1 S | 176 8.5 260 315 0.0 - 3.8
8/12/26 - 1600 93.0 87.5 31 54.8 0.00 89.4 4.0 SSE | 151 10.2 260 391 0.0 - 3.8
8/12/26 - 1500 93.9 90.5 29 55.0 0.00 88.8 2.1 ESE | 108 6.1 259 445 0.0 - 3.8
8/12/26 - 1400 93.3 87.1 33 57.0 0.00 88.3 1.7 NE | 47 7.2 259 483 0.0 - 3.8
8/12/26 - 1300 91.6 87.3 35 57.5 0.00 88.2 1.6 NE | 45 6.8 260 516 0.0 - 3.8
8/12/26 - 1200 87.3 83.3 37 56.1 0.00 88.1 1.6 NE | 50 5.5 260 485 0.0 - 3.8
8/12/26 - 1100 83.6 78.6 46 58.8 0.00 88.3 1.3 NE | 40 4.6 261 412 0.0 - 3.8
8/12/26 - 1000 79.8 74.9 52 58.5 0.00 88.2 1.2 ENE | 60 4.6 262 328 0.0 - 3.8
8/12/26 - 0900 75.2 69.4 66 59.4 0.00 88.9 0.7 ESE | 118 4.1 263 114 0.0 - 3.8
8/12/26 - 0800 69.8 65.6 77 59.9 0.00 89.2 0.6 E | 94 3.2 267 2 0.0 - 3.8
8/12/26 - 0700 66.0 65.3 82 59.8 0.00 89.4 0.1 ESE | 119 1.2 270 -40 0.0 - 3.8
8/12/26 - 0600 66.1 65.2 81 59.5 0.00 89.7 0.2 E | 99 2.3 269 -45 0.0 - 3.8
8/12/26 - 0500 66.8 65.6 79 59.6 0.00 90.2 0.1 E | 88 1.6 269 -50 0.0 - 3.8
8/12/26 - 0400 66.5 65.6 79 59.3 0.00 90.6 0.1 SSE | 151 0.7 268 -51 0.0 - 3.8
8/12/26 - 0300 68.3 66.4 77 60.0 0.00 90.9 0.1 ESE | 118 2.0 268 -53 0.0 - 3.8
8/12/26 - 0200 69.4 68.0 76 60.6 0.00 91.0 0.3 E | 101 2.7 267 -54 0.0 - 3.8
8/12/26 - 0100 70.8 69.4 74 61.4 0.00 91.3 0.3 NE | 44 2.1 266 -56 0.0 - 3.8
8/12/26 - 0000 74.6 70.6 69 62.2 0.00 91.8 0.6 NNE | 31 3.6 266 -57 0.0 - 3.8
8/11/26 - 2300 77.6 74.4 59 60.5 0.00 91.6 0.1 ENE | 77 1.8 264 -59 0.0 - 3.8
8/11/26 - 2200 80.0 77.4 47 56.9 0.00 91.9 0.6 SW | 224 3.6 262 -63 0.0 - 3.8
8/11/26 - 2100 83.6 79.9 41 55.9 0.00 91.4 2.1 SW | 232 5.5 262 -67 0.0 - 3.8
8/11/26 - 2000 88.5 83.5 38 57.1 0.00 91.4 2.5 WSW | 254 6.9 262 -59 0.0 - 3.8
8/11/26 - 1900 91.9 88.4 34 57.8 0.00 91.3 0.8 NW | 321 5.1 261 45 3.0 - 3.8
8/11/26 - 1800 94.4 91.4 33 60.3 0.00 91.7 1.6 NW | 305 9.5 260 180 4.2 - 3.8
8/11/26 - 1700 98.2 94.0 26 55.9 0.00 90.1 2.1 W | 272 9.3 260 292 6.8 - 3.8
8/11/26 - 1600 96.3 93.9 26 55.2 0.00 89.4 1.2 NNE | 33 4.2 259 392 3.2 - 3.8
8/11/26 - 1500 95.9 91.7 28 55.8 0.00 89.2 1.6 NE | 40 6.9 259 473 4.1 - 3.8
8/11/26 - 1400 92.7 86.6 33 56.5 0.00 89.1 2.1 ENE | 72 6.7 259 570 3.7 - 3.8
8/11/26 - 1300 87.6 80.4 41 57.3 0.00 88.8 2.0 SSE | 161 5.5 261 269 1.3 - 3.8
8/11/26 - 1200 87.5 80.8 40 57.9 0.00 88.3 1.4 ENE | 67 6.2 262 198 0.1 - 3.8
8/11/26 - 1100 86.2 81.5 36 53.8 0.00 85.4 1.0 NNE | 29 4.9 261 300 2.5 - 3.8
8/11/26 - 1000 82.8 78.0 38 52.0 0.00 87.6 1.1 ENE | 73 3.7 260 222 2.4 - 3.8
8/11/26 - 0900 81.1 73.4 43 51.8 0.00 93.7 0.5 NE | 39 2.8 260 141 0.0 - 3.8
8/11/26 - 0800 73.5 68.2 60 56.0 0.00 91.4 0.7 E | 97 3.3 263 -1 0.0 - 3.8
8/11/26 - 0700 68.2 67.2 69 57.1 0.00 90.5 0.0 S | 169 0.8 266 -38 0.0 - 3.8
8/11/26 - 0600 69.2 67.2 68 56.8 0.00 90.7 0.0 S | 187 1.1 266 -49 0.0 - 3.8
8/11/26 - 0500 70.5 69.0 57 53.9 0.00 90.9 0.0 ESE | 108 1.1 264 -48 0.0 - 3.8
8/11/26 - 0400 71.5 70.2 52 52.1 0.00 91.4 0.1 ESE | 117 1.5 263 -43 0.0 - 3.8
8/11/26 - 0300 71.6 70.4 52 52.6 0.00 91.9 0.1 S | 181 1.3 263 -47 0.0 - 3.8
8/11/26 - 0200 73.7 71.3 49 52.6 0.00 91.8 0.2 S | 172 2.4 263 -48 0.0 - 3.8
8/11/26 - 0100 73.5 72.7 49 52.7 0.00 92.4 0.5 S | 181 1.9 263 -47 0.0 - 3.8
8/11/26 - 0000 74.5 73.0 44 50.2 0.00 92.5 0.4 SSW | 202 2.3 262 -45 0.0 - 3.8
8/10/26 - 2300 74.4 72.6 50 53.3 0.00 92.8 0.1 SW | 229 1.6 262 -50 0.0 - 3.8
8/10/26 - 2200 77.2 73.3 50 55.8 0.00 93.1 0.3 NE | 51 2.6 263 -63 0.0 - 3.8
8/10/26 - 2100 82.2 76.7 48 57.4 0.00 92.9 0.3 NE | 50 2.5 262 -73 0.0 - 3.8
8/10/26 - 2000 88.2 82.2 36 55.3 0.00 92.4 1.3 ESE | 112 5.7 261 -61 0.0 - 3.8
8/10/26 - 1900 92.6 88.2 31 55.5 0.00 92.4 2.9 S | 188 8.7 260 45 4.8 - 3.8
8/10/26 - 1800 99.4 92.0 28 56.9 0.00 91.7 3.5 SSW | 202 7.9 259 177 0.0 - 3.8
8/10/26 - 1700 100.1 97.4 26 57.8 0.00 91.0 3.7 SSW | 211 8.8 259 293 0.0 - 3.8
8/10/26 - 1600 101.9 98.7 23 56.0 0.00 90.6 2.8 WSW | 247 9.2 258 384 5.1 - 3.8
8/10/26 - 1500 101.9 97.2 24 56.4 0.00 89.8 2.4 SW | 234 8.8 259 457 5.8 - 3.8
8/10/26 - 1400 101.2 99.2 24 56.8 0.00 89.0 1.7 NE | 36 6.2 258 489 4.1 - 3.8
8/10/26 - 1300 100.4 95.1 25 55.5 0.00 89.0 1.3 NE | 38 5.1 258 493 3.8 - 3.8
8/10/26 - 1200 96.1 90.8 27 54.7 0.00 88.2 1.1 NE | 46 4.7 258 468 2.5 - 3.8
8/10/26 - 1100 91.4 87.9 31 55.2 0.00 88.8 1.2 ENE | 59 4.5 259 413 0.1 - 3.8
8/10/26 - 1000 88.6 81.7 37 55.6 0.00 88.9 0.9 NE | 45 4.5 259 319 0.0 - 3.8
8/10/26 - 0900 81.9 75.0 48 56.4 0.00 87.7 0.3 N | 358 3.0 260 105 0.0 - 3.8
8/10/26 - 0800 75.2 69.0 57 56.2 0.00 86.0 0.3 ESE | 110 2.2 264 -1 0.0 - 3.8
8/10/26 - 0700 69.0 67.4 67 56.5 0.00 93.2 0.1 S | 172 1.1 266 -37 0.0 - 3.8
8/10/26 - 0600 68.3 67.7 66 56.5 0.00 92.3 0.1 SSE | 158 1.1 266 -48 0.0 - 3.8
8/10/26 - 0500 69.0 68.2 67 57.0 0.00 91.1 0.1 S | 188 1.0 266 -46 0.0 - 3.8
8/10/26 - 0400 70.3 68.4 65 57.0 0.00 91.2 0.4 SSW | 197 2.1 266 -49 0.0 - 3.8
8/10/26 - 0300 71.0 69.7 67 58.8 0.00 88.3 0.1 ESE | 102 1.2 266 -42 0.0 - 3.8
8/10/26 - 0200 69.8 69.0 67 58.0 0.00 92.1 0.1 S | 187 1.8 265 -45 0.0 - 3.8
8/10/26 - 0100 71.5 69.4 63 57.4 0.00 92.2 0.0 E | 96 1.1 265 -55 0.0 - 3.8
8/10/26 - 0000 73.5 71.4 62 58.9 0.00 92.2 0.4 ENE | 67 3.4 264 -57 0.0 - 3.8
8/9/26 - 2300 76.0 73.2 57 58.3 0.00 92.7 0.5 ENE | 76 3.0 264 -61 0.0 - 3.8
8/9/26 - 2200 79.9 75.7 50 58.0 0.00 92.6 0.7 E | 83 5.4 263 -68 0.0 - 3.8
8/9/26 - 2100 83.9 79.6 47 58.8 0.00 92.6 0.9 ENE | 78 4.6 262 -74 0.0 - 3.8
8/9/26 - 2000 96.3 83.7 38 59.8 0.00 92.3 0.7 ENE | 65 4.4 262 -68 0.0 - 3.8
8/9/26 - 1900 99.4 95.5 23 53.2 0.00 91.6 1.3 W | 268 7.0 259 0 2.3 - 3.8
8/9/26 - 1800 103.8 99.4 21 55.1 0.00 91.0 1.1 NW | 321 6.9 259 176 0.0 - 3.8
8/9/26 - 1700 104.4 102.5 23 57.7 0.00 90.4 1.3 N | 9 5.6 259 276 0.0 - 3.8
8/9/26 - 1600 104.7 103.1 22 57.8 0.00 89.7 1.9 NE | 36 5.5 259 371 0.0 - 3.8
8/9/26 - 1500 104.9 100.4 24 58.3 0.00 89.3 2.2 ENE | 75 8.3 259 440 0.0 - 3.8
8/9/26 - 1400 103.7 99.3 23 56.6 0.00 88.9 2.0 E | 83 5.5 259 487 4.4 - 3.8
8/9/26 - 1300 101.7 94.7 23 54.2 0.00 88.5 1.1 NNE | 32 4.3 258 490 3.1 - 3.8
8/9/26 - 1200 94.7 91.5 27 54.2 0.00 88.3 1.3 ENE | 63 4.5 259 466 3.8 - 3.8
8/9/26 - 1100 92.0 86.7 34 57.2 0.00 88.4 1.3 NNE | 24 5.0 259 410 2.6 - 3.8
8/9/26 - 1000 87.6 81.1 41 58.0 0.00 88.6 1.1 NE | 49 4.5 260 312 0.0 - 3.8
8/9/26 - 0900 81.4 74.6 53 58.8 0.00 89.1 0.5 E | 79 3.4 261 93 0.0 - 3.8
8/9/26 - 0800 74.7 67.6 66 59.2 0.00 89.4 1.3 SSW | 212 3.5 266 -6 0.0 - 3.8
8/9/26 - 0700 67.8 65.6 79 59.6 0.00 89.6 0.0 SSE | 166 0.4 269 -39 0.0 - 3.8
8/9/26 - 0600 67.4 66.2 76 59.0 0.00 87.1 0.1 SSE | 152 1.1 270 -51 0.0 - 3.8
8/9/26 - 0500 67.8 67.2 73 58.4 0.00 94.8 0.1 SSE | 165 1.5 268 -53 0.0 - 3.8
8/9/26 - 0400 69.4 67.6 72 59.4 0.00 91.9 0.1 SSW | 208 1.4 267 -54 0.0 - 3.8
8/9/26 - 0300 71.6 69.2 69 59.7 0.00 90.5 0.0 SE | 146 0.4 267 -56 0.0 - 3.8
8/9/26 - 0200 73.5 71.4 65 59.9 0.00 91.2 0.0 E | 97 1.7 266 -60 0.0 - 3.8
8/9/26 - 0100 74.0 72.7 54 55.2 0.00 91.9 0.0 NNE | 21 1.5 264 -61 0.0 - 3.8
8/9/26 - 0000 75.4 73.5 42 49.9 0.00 91.9 0.0 SSE | 162 0.4 262 -62 0.0 - 3.8
8/8/26 - 2300 79.0 75.2 38 49.4 0.00 92.3 0.3 S | 174 2.5 261 -67 0.0 - 3.8
8/8/26 - 2200 82.5 78.9 35 50.8 0.00 92.4 1.0 SSW | 211 6.0 261 -75 0.0 - 3.8
8/8/26 - 2100 86.8 82.2 28 47.7 0.00 92.2 3.6 WSW | 238 8.2 260 -82 0.0 - 3.8
8/8/26 - 2000 94.3 86.6 20 44.0 0.00 91.9 1.9 W | 278 7.4 259 -72 0.0 - 3.8
8/8/26 - 1900 99.5 93.9 17 45.0 0.00 94.0 2.0 W | 273 8.6 258 44 0.0 - 3.8
8/8/26 - 1800 101.8 98.0 13 40.9 0.00 94.9 5.1 WSW | 241 10.6 257 179 0.0 - 3.8
8/8/26 - 1700 104.3 101.0 13 43.2 0.00 87.8 2.9 W | 279 10.1 258 291 0.0 - 3.8
8/8/26 - 1600 105.9 102.1 16 49.1 0.00 84.3 2.1 WNW | 295 8.7 257 386 0.0 - 3.8
8/8/26 - 1500 105.0 102.0 18 52.4 0.00 88.5 2.4 ESE | 120 8.6 258 460 0.0 - 3.8
8/8/26 - 1400 104.4 99.2 17 47.9 0.00 93.2 2.4 E | 94 8.0 258 500 0.0 - 3.8
8/8/26 - 1300 100.6 96.7 16 44.4 0.00 90.6 1.4 SW | 231 6.3 258 500 0.0 - 3.8
8/8/26 - 1200 97.4 91.2 21 48.0 0.00 88.3 1.1 NE | 53 4.8 257 477 0.0 - 3.8
8/8/26 - 1100 91.5 86.6 25 48.5 0.00 87.7 0.9 NNE | 17 4.0 257 422 0.0 - 3.8
8/8/26 - 1000 87.0 79.0 36 52.9 0.00 88.0 0.6 NE | 39 3.1 259 330 2.1 - 3.8
8/8/26 - 0900 78.9 72.4 54 56.6 0.00 88.5 0.4 NE | 44 2.7 261 79 1.8 - 3.8
8/8/26 - 0800 72.3 66.2 70 59.0 0.00 89.0 0.1 NE | 55 1.4 266 -13 0.0 - 3.8
8/8/26 - 0700 66.2 64.0 82 58.9 0.00 89.0 0.0 S | 171 0.8 270 -38 0.0 - 3.8
8/8/26 - 0600 65.8 64.4 79 58.5 0.00 89.5 0.1 SSE | 163 1.2 272 -51 0.0 - 3.8
8/8/26 - 0500 66.6 65.1 77 58.5 0.00 90.7 0.0 SSE | 158 0.8 270 -54 0.0 - 3.8
8/8/26 - 0400 67.6 66.3 73 58.0 0.00 90.4 0.0 SSE | 161 0.8 268 -56 0.0 - 3.8
8/8/26 - 0300 69.5 67.3 68 57.2 0.00 90.9 0.1 SSW | 195 0.9 266 -58 0.0 - 3.8
8/8/26 - 0200 71.0 69.4 66 58.5 0.00 90.9 0.0 S | 191 0.9 266 -58 0.0 - 3.8
8/8/26 - 0100 73.5 71.0 56 55.9 0.00 90.7 0.0 SE | 133 1.1 264 -60 0.0 - 3.8
8/8/26 - 0000 74.7 73.2 44 50.8 0.00 91.6 0.0 ESE | 113 1.6 262 -59 0.0 - 3.8
8/7/26 - 2300 78.4 74.4 42 51.0 0.00 91.6 0.0 SSW | 201 0.7 262 -60 0.0 - 3.8
8/7/26 - 2200 80.9 78.1 40 53.2 0.00 91.8 0.9 SSW | 202 4.2 262 -67 0.0 - 3.8
8/7/26 - 2100 85.7 80.9 35 52.4 0.00 91.3 1.9 SW | 231 6.1 261 -73 0.0 - 3.8
8/7/26 - 2000 92.2 85.6 28 51.1 0.00 91.2 1.2 WNW | 286 5.8 260 -63 0.0 - 3.8
8/7/26 - 1900 95.6 92.1 24 51.4 0.00 91.1 1.4 W | 264 6.7 259 46 0.0 - 3.8
8/7/26 - 1800 98.4 94.9 18 45.8 0.00 90.3 3.6 SSW | 197 7.8 258 194 0.0 - 3.8
8/7/26 - 1700 101.1 97.4 11 35.6 0.00 89.8 2.1 ESE | 110 7.2 257 305 0.0 - 3.8
8/7/26 - 1600 101.3 98.9 11 35.0 0.00 89.4 1.6 NE | 55 6.2 257 366 0.0 - 3.8
8/7/26 - 1500 100.0 93.4 10 30.0 0.00 88.4 2.4 E | 79 8.0 257 367 0.0 - 3.8
8/7/26 - 1400 99.8 95.1 16 42.8 0.00 88.2 2.1 NE | 56 6.9 257 431 0.0 - 3.8
8/7/26 - 1300 96.2 92.7 25 53.5 0.00 87.9 1.9 NE | 47 6.2 259 511 0.0 - 3.8
8/7/26 - 1200 93.0 88.1 34 58.0 0.00 87.8 1.4 NNE | 20 4.7 259 480 0.0 - 3.8
8/7/26 - 1100 88.2 84.0 38 57.7 0.00 87.6 1.3 NNE | 31 4.8 260 419 2.2 - 3.8
8/7/26 - 1000 84.2 79.2 44 58.1 0.00 87.8 1.2 NE | 37 4.5 260 323 3.1 - 3.8
8/7/26 - 0900 79.4 74.4 55 58.7 0.00 88.4 0.6 NNE | 21 3.6 262 70 1.9 - 3.8
8/7/26 - 0800 74.4 67.0 67 59.0 0.00 89.0 0.9 SSE | 156 3.0 266 -13 1.9 - 3.8
8/7/26 - 0700 67.2 63.8 79 57.9 0.00 86.8 0.3 S | 182 3.4 268 -40 0.0 - 3.8
8/7/26 - 0600 65.1 63.8 78 57.5 0.00 93.7 0.2 S | 180 1.2 270 -52 0.0 - 3.8
8/7/26 - 0500 65.9 64.9 77 58.0 0.00 90.9 0.3 S | 190 1.8 269 -52 0.0 - 3.8
8/7/26 - 0400 66.8 65.7 77 58.8 0.00 92.9 0.2 S | 172 1.5 270 -53 0.0 - 3.8
8/7/26 - 0300 67.7 66.5 75 58.8 0.00 93.1 0.3 SSE | 164 1.5 268 -55 0.0 - 3.8
8/7/26 - 0200 68.9 67.4 73 59.1 0.00 91.6 0.0 SSW | 201 0.9 267 -57 0.0 - 3.8
8/7/26 - 0100 70.5 68.7 69 58.7 0.00 91.2 0.0 SE | 126 0.7 266 -60 0.0 - 3.8
8/7/26 - 0000 74.2 70.4 64 59.2 0.00 91.6 0.2 E | 87 2.1 266 -63 0.0 - 3.8
8/6/26 - 2300 76.5 74.0 60 60.4 0.00 91.9 0.3 NNE | 29 3.4 265 -65 0.0 - 3.8
8/6/26 - 2200 80.1 76.3 53 60.0 0.00 91.7 0.3 E | 87 3.2 264 -67 0.0 - 3.8
8/6/26 - 2100 85.2 79.9 41 56.6 0.00 92.0 0.2 WSW | 256 2.3 262 -74 0.0 - 3.8
8/6/26 - 2000 91.0 85.1 33 55.0 0.00 91.7 0.3 NW | 310 3.5 262 -64 0.0 - 3.8
8/6/26 - 1900 92.2 90.2 30 55.7 0.00 91.3 3.3 WSW | 248 8.2 260 52 0.0 - 3.8
8/6/26 - 1800 92.4 90.2 34 58.8 0.00 90.9 3.9 S | 182 8.0 261 190 0.0 - 3.8
8/6/26 - 1700 94.3 91.2 30 56.7 0.00 90.3 3.9 S | 173 8.2 260 265 0.0 - 3.8
8/6/26 - 1600 99.0 93.5 26 56.6 0.00 89.4 3.6 S | 187 9.2 259 381 0.0 - 3.8
8/6/26 - 1500 98.9 95.9 25 54.9 0.00 88.7 3.0 S | 179 7.2 259 439 0.0 - 3.8
8/6/26 - 1400 100.8 96.2 27 58.8 0.00 88.1 1.9 NE | 55 6.4 259 499 0.0 - 3.8
8/6/26 - 1300 98.1 94.0 31 60.4 0.00 88.0 1.6 NE | 46 6.6 259 504 0.0 - 3.8
8/6/26 - 1200 94.9 88.9 36 61.4 0.00 87.5 1.5 NE | 45 5.5 261 476 3.3 - 3.8
8/6/26 - 1100 89.5 84.3 40 59.8 0.00 87.5 1.1 NE | 43 4.6 260 418 3.2 - 3.8
8/6/26 - 1000 85.0 77.3 50 60.3 0.00 87.9 0.8 NNE | 20 3.8 261 327 3.6 - 3.8
8/6/26 - 0900 77.3 69.9 67 60.8 0.00 88.6 0.3 WNW | 298 2.9 263 72 1.8 - 3.8
8/6/26 - 0800 70.0 65.6 77 60.0 0.00 88.8 0.4 ESE | 110 2.4 267 -10 1.9 - 3.8
8/6/26 - 0700 65.6 63.2 85 59.0 0.00 89.0 0.4 SSW | 195 2.2 271 -23 0.0 - 3.8
8/6/26 - 0600 64.4 63.3 85 59.4 0.00 89.3 0.3 SSW | 202 1.6 262 -37 0.0 - 3.8
8/6/26 - 0500 65.5 63.7 84 59.4 0.00 89.9 0.2 S | 188 1.7 261 -46 0.0 - 3.8
8/6/26 - 0400 65.9 65.2 82 60.0 0.00 90.4 0.2 ESE | 116 2.8 271 -51 0.0 - 3.8
8/6/26 - 0300 66.6 65.2 82 60.4 0.00 90.4 0.0 S | 179 0.5 271 -54 0.0 - 3.8
8/6/26 - 0200 67.6 66.5 79 60.4 0.00 91.0 0.2 SE | 130 1.8 271 -57 0.0 - 3.8
8/6/26 - 0100 69.4 67.4 75 60.4 0.00 91.2 0.1 E | 94 1.7 269 -62 0.0 - 3.8
8/6/26 - 0000 71.8 69.2 71 60.4 0.00 91.6 0.5 ESE | 103 2.0 267 -66 0.3 - 3.8
8/5/26 - 2300 75.2 71.6 63 60.0 0.00 88.0 0.4 NNE | 21 3.7 266 -71 2.2 - 3.8
8/5/26 - 2200 79.2 74.4 55 59.0 0.00 91.7 0.6 NNW | 342 3.4 264 -73 2.4 - 3.8
8/5/26 - 2100 83.1 79.1 46 58.0 0.00 91.8 2.1 SW | 231 6.2 263 -80 2.4 - 3.8
8/5/26 - 2000 91.7 83.0 37 57.6 0.00 88.3 2.0 WSW | 247 7.1 262 -64 4.6 - 3.8
8/5/26 - 1900 94.4 91.7 32 58.6 0.00 90.6 1.1 N | 356 6.1 261 49 3.5 - 3.8
8/5/26 - 1800 95.8 92.7 32 59.1 0.00 90.4 1.5 ENE | 74 6.0 260 180 3.3 - 3.8
8/5/26 - 1700 96.5 93.9 29 57.8 0.00 87.3 1.7 NE | 52 5.2 260 302 3.8 - 3.8
8/5/26 - 1600 96.3 92.9 30 58.1 0.00 88.9 2.2 ENE | 59 5.7 260 395 3.9 - 3.8
8/5/26 - 1500 96.5 92.1 30 58.2 0.00 88.4 1.9 ENE | 58 6.5 260 467 3.8 - 3.8
8/5/26 - 1400 94.9 91.3 32 59.3 0.00 88.6 1.6 NNE | 30 6.2 260 507 4.0 - 3.8
8/5/26 - 1300 92.2 87.1 40 61.8 0.00 87.7 1.4 NNE | 26 4.9 260 515 3.7 - 3.8
8/5/26 - 1200 87.1 81.6 48 62.1 0.00 87.7 1.6 NNE | 23 5.7 262 490 3.3 - 3.8
8/5/26 - 1100 81.6 76.8 55 62.0 0.00 87.9 1.8 NNE | 29 5.7 262 430 2.7 - 3.8
8/5/26 - 1000 77.1 74.5 60 61.4 0.00 87.8 1.8 NE | 45 6.0 262 331 3.8 - 3.8
8/5/26 - 0900 74.8 69.9 69 60.7 0.00 88.0 1.0 NNE | 33 4.2 263 59 2.4 - 3.8
8/5/26 - 0800 70.0 64.3 78 59.8 0.00 88.8 0.4 ENE | 77 3.0 267 13 1.1 - 3.8
8/5/26 - 0700 64.3 61.8 87 58.6 0.00 88.9 0.5 S | 175 2.2 200 -12 0.0 - 3.8
8/5/26 - 0600 63.2 62.3 86 58.5 0.00 86.9 0.1 S | 182 1.1 196 -27 0.0 - 3.8
8/5/26 - 0500 63.5 62.6 85 58.6 0.00 89.0 0.1 SSE | 166 1.0 220 -33 0.0 - 3.8
8/5/26 - 0400 64.0 63.3 84 58.8 0.00 94.1 0.2 SSE | 154 1.1 242 -41 0.0 - 3.8
8/5/26 - 0300 65.3 63.8 83 59.3 0.00 91.0 0.3 S | 174 1.5 266 -49 0.0 - 3.8
8/5/26 - 0200 66.0 65.1 81 59.5 0.00 91.2 0.0 SE | 142 0.2 272 -57 0.0 - 3.8
8/5/26 - 0100 67.2 65.8 77 58.9 0.00 91.5 0.0 N | 0 0.0 270 -61 0.0 - 3.8
8/5/26 - 0000 68.1 67.0 73 58.8 0.00 91.6 0.1 SSW | 199 1.4 268 -63 0.0 46.6 3.8
8/4/26 - 2300 70.3 67.9 69 58.5 0.00 91.5 0.0 SSW | 193 0.9 267 -68 0.0 42.9 3.8
8/4/26 - 2200 73.1 70.1 62 57.9 0.00 88.0 0.0 ESE | 104 1.3 266 -74 0.0 - 3.8
8/4/26 - 2100 78.1 73.0 55 58.0 0.00 94.4 0.4 ENE | 61 2.9 264 -81 1.6 - 3.8
8/4/26 - 2000 83.1 78.0 46 58.0 0.00 94.9 1.1 E | 83 4.8 263 -62 2.6 - 3.8
8/4/26 - 1900 87.6 83.0 38 56.2 0.00 91.2 3.0 SSE | 164 7.6 262 61 5.7 - 3.8
8/4/26 - 1800 92.2 87.5 34 58.6 0.00 90.8 3.1 SSE | 156 7.7 261 192 5.6 - 3.8
8/4/26 - 1700 92.0 89.4 37 60.5 0.00 94.4 3.6 SSW | 208 8.4 261 311 5.9 - 3.8
8/4/26 - 1600 97.0 88.4 33 59.7 0.00 89.5 3.0 ESE | 119 9.4 261 402 7.2 - 3.8
8/4/26 - 1500 95.7 92.1 33 60.3 0.00 89.1 1.9 ENE | 68 6.4 260 474 4.1 - 3.8
8/4/26 - 1400 93.9 88.7 33 58.3 0.00 88.5 1.6 NNE | 31 5.9 260 514 3.6 - 3.8
8/4/26 - 1300 90.0 86.4 41 61.4 0.00 88.0 2.4 NE | 53 9.0 261 523 4.1 - 3.8
8/4/26 - 1200 88.6 83.5 44 61.2 0.00 88.0 1.4 NE | 49 6.6 261 497 3.8 - 3.8
8/4/26 - 1100 83.6 77.4 53 61.1 0.00 88.0 1.3 NE | 34 4.9 262 438 3.4 - 3.8
8/4/26 - 1000 77.9 74.7 59 61.4 0.00 88.3 1.4 NE | 46 5.2 262 338 3.8 - 3.8
8/4/26 - 0900 74.8 69.1 70 61.0 0.00 89.2 0.8 NNE | 32 4.6 263 43 2.3 - 3.8
8/4/26 - 0800 69.3 64.3 80 60.7 0.00 89.2 0.1 ENE | 69 1.8 266 10 0.0 - 3.8
8/4/26 - 0700 64.3 62.1 87 59.0 0.00 89.9 0.2 S | 172 1.2 184 -15 0.0 - 3.8
8/4/26 - 0600 63.4 62.4 86 58.7 0.00 90.2 0.2 S | 170 1.4 184 -36 0.0 - 3.8
8/4/26 - 0500 64.3 63.3 84 58.7 0.00 90.5 0.2 S | 182 1.3 245 -50 0.0 - 3.8
8/4/26 - 0400 65.6 64.3 82 59.2 0.00 87.1 0.2 S | 187 1.2 272 -57 0.0 - 3.8
8/4/26 - 0300 67.2 65.4 79 59.5 0.00 91.2 0.0 ESE | 108 1.0 272 -61 0.0 - 3.8
8/4/26 - 0200 68.2 67.1 73 58.8 0.00 91.7 0.2 E | 100 2.5 268 -66 0.0 - 3.8
8/4/26 - 0100 70.9 68.0 65 56.9 0.00 92.1 0.1 ENE | 77 3.1 266 -69 0.0 - 3.8
8/4/26 - 0000 72.0 70.8 58 55.9 0.00 93.7 0.1 E | 90 2.9 264 -70 0.7 - 3.8
8/3/26 - 2300 75.1 71.6 47 51.7 0.00 92.7 0.0 SSE | 166 0.8 263 -72 0.0 - 3.8
8/3/26 - 2200 79.4 75.0 40 51.1 0.00 92.9 0.0 E | 99 1.2 262 -75 0.1 - 3.8
8/3/26 - 2100 83.3 79.4 37 52.1 0.00 92.5 0.3 SSE | 165 2.1 261 -79 0.0 - 3.8
8/3/26 - 2000 91.6 83.4 30 53.4 0.00 92.6 0.8 NNW | 336 7.6 260 -65 4.8 - 3.8
8/3/26 - 1900 93.0 90.5 31 56.3 0.00 92.3 3.2 S | 177 7.8 260 59 4.6 - 3.8
8/3/26 - 1800 97.0 92.8 27 55.5 0.00 91.5 2.6 SSE | 153 6.4 259 188 4.3 - 3.8
8/3/26 - 1700 96.0 94.3 23 51.8 0.00 90.5 3.2 S | 183 8.4 259 308 5.3 - 3.8
8/3/26 - 1600 101.7 94.1 22 52.3 0.00 90.5 3.2 SE | 140 9.3 259 397 6.4 - 3.8
8/3/26 - 1500 101.6 99.2 18 49.1 0.00 89.5 2.0 NE | 42 6.5 259 462 3.8 - 3.8
8/3/26 - 1400 101.0 95.5 20 49.9 0.00 88.8 1.8 NE | 39 5.4 259 505 3.9 - 3.8
8/3/26 - 1300 96.1 92.5 28 56.3 0.00 88.5 1.6 NE | 36 7.4 259 514 3.5 - 3.8
8/3/26 - 1200 92.5 86.7 37 60.0 0.00 88.4 1.4 NNE | 31 4.9 260 492 3.2 - 3.8
8/3/26 - 1100 87.3 82.8 44 60.6 0.00 88.6 1.5 NE | 37 4.9 260 433 3.5 - 3.8
8/3/26 - 1000 82.9 77.5 52 61.0 0.00 89.0 1.4 NE | 34 4.6 262 336 4.1 - 3.8
8/3/26 - 0900 77.4 71.1 66 61.2 0.00 89.4 0.8 ENE | 60 3.8 262 25 3.6 - 3.8
8/3/26 - 0800 71.1 65.2 79 61.6 0.00 89.4 0.2 ENE | 68 1.9 266 -1 0.0 - 3.8
8/3/26 - 0700 65.4 63.6 86 60.1 0.00 89.9 0.1 S | 188 1.1 181 -18 0.0 - 3.8
8/3/26 - 0600 65.4 64.1 85 60.2 0.00 90.6 0.1 SSW | 195 1.1 178 -39 0.0 - 3.8
8/3/26 - 0500 66.6 65.1 84 60.8 0.00 90.6 0.3 S | 176 1.6 248 -48 0.0 - 3.8
8/3/26 - 0400 67.6 66.1 80 60.6 0.00 91.1 0.1 ESE | 118 1.6 270 -57 0.0 - 3.8
8/3/26 - 0300 69.5 67.4 76 60.4 0.00 91.3 0.1 E | 96 2.2 269 -61 0.0 - 3.8
8/3/26 - 0200 71.3 69.2 69 59.5 0.00 92.1 0.1 ENE | 62 3.1 267 -63 1.2 - 3.8
8/3/26 - 0100 71.9 71.1 63 58.2 0.00 92.4 0.1 ENE | 73 2.8 266 -63 1.0 - 3.8
8/3/26 - 0000 73.3 71.7 60 58.0 0.00 92.6 0.0 E | 85 1.6 265 -64 0.0 - 3.8
8/2/26 - 2300 75.9 73.1 57 58.0 0.00 93.1 0.1 SE | 126 2.4 264 -70 0.0 - 3.8
8/2/26 - 2200 80.9 75.8 50 57.7 0.00 93.0 0.3 E | 81 2.9 263 -75 0.9 - 3.8
8/2/26 - 2100 83.9 80.9 42 56.9 0.00 92.7 0.5 S | 182 2.5 262 -80 1.3 - 3.8
8/2/26 - 2000 91.9 83.6 33 54.5 0.00 92.4 2.4 S | 190 5.3 261 -63 3.6 - 3.8
8/2/26 - 1900 99.0 91.9 27 56.6 0.00 90.8 1.8 W | 270 6.5 259 55 5.5 - 3.8
8/2/26 - 1800 99.3 97.6 22 52.6 0.00 91.3 2.0 S | 184 6.2 259 188 4.4 - 3.8
8/2/26 - 1700 100.1 97.8 19 49.0 0.00 90.8 3.4 S | 183 7.8 259 306 5.0 - 3.8
8/2/26 - 1600 101.5 99.2 17 48.1 0.00 90.0 3.2 S | 184 8.9 258 396 0.0 - 3.8
8/2/26 - 1500 103.1 99.7 18 49.2 0.00 93.4 2.4 E | 82 6.7 258 464 0.0 - 3.8
8/2/26 - 1400 101.7 98.7 19 51.2 0.00 89.0 1.6 NE | 42 5.9 258 502 0.0 - 3.8
8/2/26 - 1300 99.5 93.9 27 57.6 0.00 88.3 1.6 NNE | 32 4.9 259 510 0.0 - 3.8
8/2/26 - 1200 95.6 90.7 31 58.2 0.00 88.2 1.6 NNE | 28 5.3 259 487 0.0 - 3.8
8/2/26 - 1100 91.3 85.1 36 58.4 0.00 88.4 1.3 NE | 52 4.6 260 433 0.0 - 3.8
8/2/26 - 1000 85.3 78.4 45 58.1 0.00 88.7 1.1 NE | 36 3.4 260 339 0.0 - 3.8
8/2/26 - 0900 78.5 71.8 63 60.4 0.00 89.1 0.5 W | 259 2.8 262 17 2.0 - 3.8
8/2/26 - 0800 71.8 67.1 73 60.4 0.00 89.8 0.3 SE | 131 1.8 264 -29 1.8 - 3.8
8/2/26 - 0700 67.2 64.6 77 58.1 0.00 89.9 0.1 SSE | 156 1.0 269 -42 0.0 - 3.8
8/2/26 - 0600 65.9 64.7 75 57.2 0.00 90.3 0.1 S | 175 0.9 270 -54 0.0 - 3.8
8/2/26 - 0500 66.9 65.4 72 57.0 0.00 90.9 0.1 SSE | 167 1.1 268 -55 0.0 - 3.8
8/2/26 - 0400 68.1 66.6 70 57.1 0.00 91.0 0.2 SSE | 162 1.2 267 -57 0.0 - 3.8
8/2/26 - 0300 70.3 67.6 66 56.8 0.00 91.3 0.3 S | 178 1.3 266 -59 0.0 - 3.8
8/2/26 - 0200 72.6 70.2 62 58.0 0.00 91.9 0.3 ESE | 106 2.9 266 -63 0.6 - 3.8
8/2/26 - 0100 74.0 71.8 62 59.1 0.00 91.8 0.2 ESE | 109 2.6 266 -64 0.0 - 3.8
8/2/26 - 0000 75.8 73.8 54 57.0 0.00 88.1 0.0 SE | 124 1.2 264 -66 0.0 - 3.8
8/1/26 - 2300 80.0 75.6 53 58.6 0.00 92.8 0.0 SSW | 196 0.9 264 -69 0.0 - 3.8
8/1/26 - 2200 82.7 79.8 47 58.9 0.00 92.5 1.3 SSW | 208 5.4 263 -78 4.2 - 3.8
8/1/26 - 2100 88.6 82.8 41 58.8 0.00 92.6 1.8 WSW | 242 6.0 262 -82 3.6 - 3.8
8/1/26 - 2000 95.4 88.6 32 57.8 0.00 92.1 0.8 WNW | 300 6.8 261 -61 4.2 - 3.8
8/1/26 - 1900 99.7 95.2 27 57.5 0.00 95.1 1.9 WNW | 287 8.3 259 58 7.0 - 3.8
8/1/26 - 1800 100.2 98.6 21 52.0 0.00 91.3 3.2 S | 175 9.1 259 190 6.3 - 3.8
8/1/26 - 1700 103.4 98.7 18 49.7 0.00 90.4 3.8 S | 178 8.9 258 306 6.8 - 3.8
8/1/26 - 1600 106.5 102.6 19 54.0 0.00 89.8 2.0 ENE | 74 7.2 258 392 4.9 - 3.8
8/1/26 - 1500 103.8 100.6 22 56.5 0.00 88.8 1.9 E | 84 5.9 259 467 4.9 - 3.8
8/1/26 - 1400 103.5 100.3 22 56.2 0.00 88.5 1.7 NE | 52 7.1 259 504 4.9 - 3.8
8/1/26 - 1300 101.6 97.0 23 54.8 0.00 88.1 1.4 NE | 41 6.0 259 510 3.5 - 3.8
8/1/26 - 1200 97.0 90.6 31 58.7 0.00 87.9 1.0 N | 0 4.6 259 490 3.1 - 3.8
8/1/26 - 1100 91.0 85.3 39 60.1 0.00 88.1 0.8 NNE | 23 3.4 260 435 3.4 - 3.8
8/1/26 - 1000 85.9 78.9 46 59.7 0.00 88.2 0.8 NNE | 25 3.1 260 341 2.3 - 3.8
8/1/26 - 0900 79.1 71.8 62 60.5 0.00 89.0 0.4 NNE | 22 3.8 262 10 3.0 - 3.8
8/1/26 - 0800 71.9 65.4 73 59.8 0.00 89.0 0.1 NNE | 33 1.4 265 -16 0.0 - 3.8
8/1/26 - 0700 65.4 63.6 84 59.1 0.00 89.5 0.1 SSE | 148 0.9 176 -19 0.0 - 3.8
8/1/26 - 0600 64.6 63.4 84 58.9 0.00 90.2 0.0 SSE | 153 0.7 176 -39 0.0 - 3.8
8/1/26 - 0500 65.3 64.5 82 59.4 0.00 90.4 0.0 SSE | 158 0.8 180 -49 0.0 - 3.8
8/1/26 - 0400 67.4 64.9 80 59.7 0.00 90.9 0.0 SSE | 162 0.6 260 -57 0.0 - 3.8
8/1/26 - 0300 68.4 67.0 76 60.0 0.00 91.0 0.0 S | 190 0.8 272 -60 0.0 - 3.8
8/1/26 - 0200 69.8 68.2 75 61.0 0.00 91.5 0.0 SSE | 152 0.8 270 -64 0.0 - 3.8
8/1/26 - 0100 73.6 69.7 70 61.6 0.00 92.1 0.1 ESE | 109 2.7 268 -70 0.0 - 3.8
8/1/26 - 0000 74.1 73.2 67 62.2 0.00 92.1 0.2 ENE | 67 2.6 266 -73 0.0 - 3.8
Max 110.5 105.7 90 65.2 0.00 97.2 5.2 - 14.6 280 570 10.3 73.3 9.1
Avg 83.1 79.5 47 55.9 0.00 90.1 1.1 - 4.2 260 117 1.4 47.2 5.1
Min 60.8 59.8 10 30.0 0.00 82.5 0.0 - 0.0 174 -93 0.0 11.4 3.8
Total - - - - 0.00 - - - - - - - - -